<?xml version="1.0" encoding="UTF-8" standalone="no" ?>
<gpx xmlns="http://www.topografix.com/GPX/1/1" xmlns:xsi="http://www.w3.org/2001/XMLSchema-instance" xsi:schemaLocation="http://www.topografix.com/GPX/1/1 http://www.topografix.com/GPX/1/1/gpx.xsd" version="1.1" creator="VisuGPX - https://www.visugpx.com">
  <metadata>
    <name>83 - V - St Antonin </name>
    <desc><![CDATA[83 - V - St Antonin : crêpes - Collédar - bastide des Prés 
2023-02-10]]></desc>
  </metadata>
  <trk>
    <name><![CDATA[St Antonin crêpes  Collédar  bastide des prés 10-02-23_traces]]></name>
    <trkseg>
      <trkpt lat="43.50696" lon="6.28766">
        <ele>182</ele>
        <time>2023-02-10T12:51:54Z</time>
      </trkpt>
      <trkpt lat="43.50696" lon="6.28766">
        <ele>182</ele>
        <time>2023-02-10T12:51:55Z</time>
      </trkpt>
      <trkpt lat="43.50697" lon="6.28762">
        <ele>175</ele>
        <time>2023-02-10T12:52:29Z</time>
      </trkpt>
      <trkpt lat="43.50695" lon="6.2876">
        <ele>175</ele>
        <time>2023-02-10T12:52:46Z</time>
      </trkpt>
      <trkpt lat="43.50673" lon="6.28729">
        <ele>185</ele>
        <time>2023-02-10T12:53:19Z</time>
      </trkpt>
      <trkpt lat="43.50669" lon="6.28721">
        <ele>184</ele>
        <time>2023-02-10T12:53:27Z</time>
      </trkpt>
      <trkpt lat="43.50668" lon="6.28717">
        <ele>184</ele>
        <time>2023-02-10T12:53:31Z</time>
      </trkpt>
      <trkpt lat="43.50666" lon="6.28714">
        <ele>184</ele>
        <time>2023-02-10T12:53:34Z</time>
      </trkpt>
      <trkpt lat="43.50661" lon="6.28708">
        <ele>185</ele>
        <time>2023-02-10T12:53:42Z</time>
      </trkpt>
      <trkpt lat="43.5066" lon="6.28705">
        <ele>184</ele>
        <time>2023-02-10T12:53:46Z</time>
      </trkpt>
      <trkpt lat="43.5065" lon="6.28697">
        <ele>182</ele>
        <time>2023-02-10T12:53:56Z</time>
      </trkpt>
      <trkpt lat="43.50637" lon="6.28681">
        <ele>185</ele>
        <time>2023-02-10T12:54:11Z</time>
      </trkpt>
      <trkpt lat="43.50627" lon="6.28663">
        <ele>186</ele>
        <time>2023-02-10T12:54:25Z</time>
      </trkpt>
      <trkpt lat="43.50621" lon="6.28652">
        <ele>186</ele>
        <time>2023-02-10T12:54:34Z</time>
      </trkpt>
      <trkpt lat="43.50616" lon="6.28644">
        <ele>185</ele>
        <time>2023-02-10T12:54:42Z</time>
      </trkpt>
      <trkpt lat="43.5061" lon="6.28632">
        <ele>185</ele>
        <time>2023-02-10T12:54:51Z</time>
      </trkpt>
      <trkpt lat="43.50607" lon="6.28625">
        <ele>185</ele>
        <time>2023-02-10T12:54:56Z</time>
      </trkpt>
      <trkpt lat="43.50601" lon="6.28612">
        <ele>184</ele>
        <time>2023-02-10T12:55:04Z</time>
      </trkpt>
      <trkpt lat="43.50583" lon="6.28589">
        <ele>183</ele>
        <time>2023-02-10T12:55:26Z</time>
      </trkpt>
      <trkpt lat="43.50577" lon="6.28583">
        <ele>183</ele>
        <time>2023-02-10T12:55:32Z</time>
      </trkpt>
      <trkpt lat="43.50555" lon="6.28558">
        <ele>183</ele>
        <time>2023-02-10T12:55:55Z</time>
      </trkpt>
      <trkpt lat="43.50547" lon="6.28553">
        <ele>184</ele>
        <time>2023-02-10T12:56:03Z</time>
      </trkpt>
      <trkpt lat="43.5054" lon="6.28552">
        <ele>183</ele>
        <time>2023-02-10T12:56:11Z</time>
      </trkpt>
      <trkpt lat="43.50534" lon="6.28552">
        <ele>182</ele>
        <time>2023-02-10T12:56:18Z</time>
      </trkpt>
      <trkpt lat="43.50532" lon="6.28554">
        <ele>182</ele>
        <time>2023-02-10T12:56:27Z</time>
      </trkpt>
      <trkpt lat="43.50529" lon="6.28554">
        <ele>180</ele>
        <time>2023-02-10T12:56:44Z</time>
      </trkpt>
      <trkpt lat="43.50519" lon="6.2856">
        <ele>178</ele>
        <time>2023-02-10T12:57:01Z</time>
      </trkpt>
      <trkpt lat="43.50516" lon="6.28561">
        <ele>178</ele>
        <time>2023-02-10T12:57:04Z</time>
      </trkpt>
      <trkpt lat="43.50506" lon="6.28569">
        <ele>176</ele>
        <time>2023-02-10T12:57:15Z</time>
      </trkpt>
      <trkpt lat="43.50503" lon="6.2857">
        <ele>175</ele>
        <time>2023-02-10T12:57:22Z</time>
      </trkpt>
      <trkpt lat="43.505" lon="6.28569">
        <ele>177</ele>
        <time>2023-02-10T12:57:39Z</time>
      </trkpt>
      <trkpt lat="43.50492" lon="6.28561">
        <ele>179</ele>
        <time>2023-02-10T12:57:48Z</time>
      </trkpt>
      <trkpt lat="43.50489" lon="6.28558">
        <ele>178</ele>
        <time>2023-02-10T12:57:51Z</time>
      </trkpt>
      <trkpt lat="43.50487" lon="6.28557">
        <ele>178</ele>
        <time>2023-02-10T12:57:53Z</time>
      </trkpt>
      <trkpt lat="43.50484" lon="6.28557">
        <ele>178</ele>
        <time>2023-02-10T12:57:56Z</time>
      </trkpt>
      <trkpt lat="43.5048" lon="6.2856">
        <ele>178</ele>
        <time>2023-02-10T12:57:59Z</time>
      </trkpt>
      <trkpt lat="43.50462" lon="6.28566">
        <ele>175</ele>
        <time>2023-02-10T12:58:14Z</time>
      </trkpt>
      <trkpt lat="43.50459" lon="6.28566">
        <ele>175</ele>
        <time>2023-02-10T12:58:18Z</time>
      </trkpt>
      <trkpt lat="43.50455" lon="6.28562">
        <ele>175</ele>
        <time>2023-02-10T12:58:21Z</time>
      </trkpt>
      <trkpt lat="43.50422" lon="6.28551">
        <ele>175</ele>
        <time>2023-02-10T12:58:48Z</time>
      </trkpt>
      <trkpt lat="43.50419" lon="6.2855">
        <ele>175</ele>
        <time>2023-02-10T12:58:51Z</time>
      </trkpt>
      <trkpt lat="43.50397" lon="6.28537">
        <ele>175</ele>
        <time>2023-02-10T12:59:10Z</time>
      </trkpt>
      <trkpt lat="43.50393" lon="6.28535">
        <ele>175</ele>
        <time>2023-02-10T12:59:13Z</time>
      </trkpt>
      <trkpt lat="43.50383" lon="6.28531">
        <ele>174</ele>
        <time>2023-02-10T12:59:22Z</time>
      </trkpt>
      <trkpt lat="43.50362" lon="6.28507">
        <ele>172</ele>
        <time>2023-02-10T12:59:42Z</time>
      </trkpt>
      <trkpt lat="43.50351" lon="6.28497">
        <ele>171</ele>
        <time>2023-02-10T12:59:52Z</time>
      </trkpt>
      <trkpt lat="43.5034" lon="6.28487">
        <ele>170</ele>
        <time>2023-02-10T13:00:02Z</time>
      </trkpt>
      <trkpt lat="43.50337" lon="6.28481">
        <ele>169</ele>
        <time>2023-02-10T13:00:06Z</time>
      </trkpt>
      <trkpt lat="43.50335" lon="6.28476">
        <ele>168</ele>
        <time>2023-02-10T13:00:09Z</time>
      </trkpt>
      <trkpt lat="43.50335" lon="6.28468">
        <ele>167</ele>
        <time>2023-02-10T13:00:13Z</time>
      </trkpt>
      <trkpt lat="43.50333" lon="6.28456">
        <ele>167</ele>
        <time>2023-02-10T13:00:19Z</time>
      </trkpt>
      <trkpt lat="43.50331" lon="6.28451">
        <ele>167</ele>
        <time>2023-02-10T13:00:22Z</time>
      </trkpt>
      <trkpt lat="43.5032" lon="6.2844">
        <ele>167</ele>
        <time>2023-02-10T13:00:33Z</time>
      </trkpt>
      <trkpt lat="43.50307" lon="6.28432">
        <ele>168</ele>
        <time>2023-02-10T13:00:43Z</time>
      </trkpt>
      <trkpt lat="43.50287" lon="6.28416">
        <ele>168</ele>
        <time>2023-02-10T13:01:00Z</time>
      </trkpt>
      <trkpt lat="43.50284" lon="6.28414">
        <ele>169</ele>
        <time>2023-02-10T13:01:03Z</time>
      </trkpt>
      <trkpt lat="43.50275" lon="6.28411">
        <ele>168</ele>
        <time>2023-02-10T13:01:15Z</time>
      </trkpt>
      <trkpt lat="43.50272" lon="6.2841">
        <ele>168</ele>
        <time>2023-02-10T13:01:18Z</time>
      </trkpt>
      <trkpt lat="43.50267" lon="6.28406">
        <ele>169</ele>
        <time>2023-02-10T13:01:23Z</time>
      </trkpt>
      <trkpt lat="43.50265" lon="6.28404">
        <ele>169</ele>
        <time>2023-02-10T13:01:25Z</time>
      </trkpt>
      <trkpt lat="43.50234" lon="6.28395">
        <ele>169</ele>
        <time>2023-02-10T13:01:56Z</time>
      </trkpt>
      <trkpt lat="43.50228" lon="6.28392">
        <ele>168</ele>
        <time>2023-02-10T13:02:02Z</time>
      </trkpt>
      <trkpt lat="43.50225" lon="6.28392">
        <ele>166</ele>
        <time>2023-02-10T13:02:33Z</time>
      </trkpt>
      <trkpt lat="43.50223" lon="6.28391">
        <ele>166</ele>
        <time>2023-02-10T13:02:35Z</time>
      </trkpt>
      <trkpt lat="43.50218" lon="6.28388">
        <ele>164</ele>
        <time>2023-02-10T13:02:44Z</time>
      </trkpt>
      <trkpt lat="43.50215" lon="6.28388">
        <ele>163</ele>
        <time>2023-02-10T13:03:13Z</time>
      </trkpt>
      <trkpt lat="43.50213" lon="6.28389">
        <ele>163</ele>
        <time>2023-02-10T13:03:16Z</time>
      </trkpt>
      <trkpt lat="43.50208" lon="6.28387">
        <ele>163</ele>
        <time>2023-02-10T13:03:32Z</time>
      </trkpt>
      <trkpt lat="43.50207" lon="6.28384">
        <ele>164</ele>
        <time>2023-02-10T13:03:42Z</time>
      </trkpt>
      <trkpt lat="43.50205" lon="6.28382">
        <ele>164</ele>
        <time>2023-02-10T13:03:51Z</time>
      </trkpt>
      <trkpt lat="43.50201" lon="6.28382">
        <ele>163</ele>
        <time>2023-02-10T13:03:58Z</time>
      </trkpt>
      <trkpt lat="43.50198" lon="6.28382">
        <ele>162</ele>
        <time>2023-02-10T13:04:01Z</time>
      </trkpt>
      <trkpt lat="43.50195" lon="6.28383">
        <ele>162</ele>
        <time>2023-02-10T13:04:05Z</time>
      </trkpt>
      <trkpt lat="43.50193" lon="6.28382">
        <ele>161</ele>
        <time>2023-02-10T13:04:08Z</time>
      </trkpt>
      <trkpt lat="43.5019" lon="6.28381">
        <ele>161</ele>
        <time>2023-02-10T13:04:11Z</time>
      </trkpt>
      <trkpt lat="43.50188" lon="6.2838">
        <ele>160</ele>
        <time>2023-02-10T13:04:14Z</time>
      </trkpt>
      <trkpt lat="43.50183" lon="6.28378">
        <ele>158</ele>
        <time>2023-02-10T13:04:23Z</time>
      </trkpt>
      <trkpt lat="43.50181" lon="6.28379">
        <ele>158</ele>
        <time>2023-02-10T13:04:26Z</time>
      </trkpt>
      <trkpt lat="43.50176" lon="6.28382">
        <ele>156</ele>
        <time>2023-02-10T13:04:33Z</time>
      </trkpt>
      <trkpt lat="43.50171" lon="6.28386">
        <ele>154</ele>
        <time>2023-02-10T13:04:40Z</time>
      </trkpt>
      <trkpt lat="43.50168" lon="6.28387">
        <ele>153</ele>
        <time>2023-02-10T13:04:43Z</time>
      </trkpt>
      <trkpt lat="43.50167" lon="6.28389">
        <ele>152</ele>
        <time>2023-02-10T13:04:47Z</time>
      </trkpt>
      <trkpt lat="43.5016" lon="6.28394">
        <ele>154</ele>
        <time>2023-02-10T13:04:58Z</time>
      </trkpt>
      <trkpt lat="43.50157" lon="6.28395">
        <ele>154</ele>
        <time>2023-02-10T13:05:01Z</time>
      </trkpt>
      <trkpt lat="43.50155" lon="6.28397">
        <ele>153</ele>
        <time>2023-02-10T13:05:03Z</time>
      </trkpt>
      <trkpt lat="43.50144" lon="6.28406">
        <ele>153</ele>
        <time>2023-02-10T13:05:16Z</time>
      </trkpt>
      <trkpt lat="43.5014" lon="6.2841">
        <ele>152</ele>
        <time>2023-02-10T13:05:23Z</time>
      </trkpt>
      <trkpt lat="43.5013" lon="6.28417">
        <ele>152</ele>
        <time>2023-02-10T13:05:37Z</time>
      </trkpt>
      <trkpt lat="43.50123" lon="6.28422">
        <ele>151</ele>
        <time>2023-02-10T13:05:49Z</time>
      </trkpt>
      <trkpt lat="43.50116" lon="6.28429">
        <ele>147</ele>
        <time>2023-02-10T13:06:01Z</time>
      </trkpt>
      <trkpt lat="43.50112" lon="6.28432">
        <ele>146</ele>
        <time>2023-02-10T13:06:07Z</time>
      </trkpt>
      <trkpt lat="43.5011" lon="6.28432">
        <ele>145</ele>
        <time>2023-02-10T13:06:10Z</time>
      </trkpt>
      <trkpt lat="43.50104" lon="6.28433">
        <ele>143</ele>
        <time>2023-02-10T13:06:17Z</time>
      </trkpt>
      <trkpt lat="43.50101" lon="6.28435">
        <ele>142</ele>
        <time>2023-02-10T13:06:21Z</time>
      </trkpt>
      <trkpt lat="43.50092" lon="6.28436">
        <ele>141</ele>
        <time>2023-02-10T13:06:30Z</time>
      </trkpt>
      <trkpt lat="43.50081" lon="6.28436">
        <ele>141</ele>
        <time>2023-02-10T13:06:40Z</time>
      </trkpt>
      <trkpt lat="43.50079" lon="6.28436">
        <ele>142</ele>
        <time>2023-02-10T13:06:42Z</time>
      </trkpt>
      <trkpt lat="43.50056" lon="6.28435">
        <ele>145</ele>
        <time>2023-02-10T13:07:09Z</time>
      </trkpt>
      <trkpt lat="43.5005" lon="6.28436">
        <ele>146</ele>
        <time>2023-02-10T13:07:16Z</time>
      </trkpt>
      <trkpt lat="43.50048" lon="6.28435">
        <ele>147</ele>
        <time>2023-02-10T13:07:20Z</time>
      </trkpt>
      <trkpt lat="43.50031" lon="6.2844">
        <ele>145</ele>
        <time>2023-02-10T13:07:38Z</time>
      </trkpt>
      <trkpt lat="43.50029" lon="6.28439">
        <ele>145</ele>
        <time>2023-02-10T13:07:40Z</time>
      </trkpt>
      <trkpt lat="43.50026" lon="6.28439">
        <ele>146</ele>
        <time>2023-02-10T13:07:42Z</time>
      </trkpt>
      <trkpt lat="43.50023" lon="6.28438">
        <ele>146</ele>
        <time>2023-02-10T13:07:45Z</time>
      </trkpt>
      <trkpt lat="43.50015" lon="6.2844">
        <ele>144</ele>
        <time>2023-02-10T13:07:54Z</time>
      </trkpt>
      <trkpt lat="43.50012" lon="6.28439">
        <ele>144</ele>
        <time>2023-02-10T13:07:57Z</time>
      </trkpt>
      <trkpt lat="43.5001" lon="6.28438">
        <ele>144</ele>
        <time>2023-02-10T13:08:00Z</time>
      </trkpt>
      <trkpt lat="43.50004" lon="6.28437">
        <ele>145</ele>
        <time>2023-02-10T13:08:10Z</time>
      </trkpt>
      <trkpt lat="43.49998" lon="6.28436">
        <ele>142</ele>
        <time>2023-02-10T13:08:24Z</time>
      </trkpt>
      <trkpt lat="43.49995" lon="6.28434">
        <ele>142</ele>
        <time>2023-02-10T13:08:34Z</time>
      </trkpt>
      <trkpt lat="43.49993" lon="6.28433">
        <ele>142</ele>
        <time>2023-02-10T13:08:40Z</time>
      </trkpt>
      <trkpt lat="43.49991" lon="6.28434">
        <ele>143</ele>
        <time>2023-02-10T13:08:53Z</time>
      </trkpt>
      <trkpt lat="43.49989" lon="6.28432">
        <ele>142</ele>
        <time>2023-02-10T13:09:25Z</time>
      </trkpt>
      <trkpt lat="43.49987" lon="6.2843">
        <ele>143</ele>
        <time>2023-02-10T13:09:30Z</time>
      </trkpt>
      <trkpt lat="43.49985" lon="6.28429">
        <ele>143</ele>
        <time>2023-02-10T13:09:38Z</time>
      </trkpt>
      <trkpt lat="43.4998" lon="6.28427">
        <ele>146</ele>
        <time>2023-02-10T13:09:49Z</time>
      </trkpt>
      <trkpt lat="43.49975" lon="6.28424">
        <ele>149</ele>
        <time>2023-02-10T13:10:06Z</time>
      </trkpt>
      <trkpt lat="43.49971" lon="6.28425">
        <ele>148</ele>
        <time>2023-02-10T13:10:21Z</time>
      </trkpt>
      <trkpt lat="43.49969" lon="6.28424">
        <ele>149</ele>
        <time>2023-02-10T13:10:24Z</time>
      </trkpt>
      <trkpt lat="43.49967" lon="6.28424">
        <ele>148</ele>
        <time>2023-02-10T13:10:33Z</time>
      </trkpt>
      <trkpt lat="43.49961" lon="6.28421">
        <ele>147</ele>
        <time>2023-02-10T13:10:58Z</time>
      </trkpt>
      <trkpt lat="43.49958" lon="6.28422">
        <ele>148</ele>
        <time>2023-02-10T13:11:08Z</time>
      </trkpt>
      <trkpt lat="43.49955" lon="6.28421">
        <ele>147</ele>
        <time>2023-02-10T13:11:14Z</time>
      </trkpt>
      <trkpt lat="43.49951" lon="6.28421">
        <ele>144</ele>
        <time>2023-02-10T13:11:20Z</time>
      </trkpt>
      <trkpt lat="43.49949" lon="6.28419">
        <ele>144</ele>
        <time>2023-02-10T13:11:22Z</time>
      </trkpt>
      <trkpt lat="43.49945" lon="6.28412">
        <ele>144</ele>
        <time>2023-02-10T13:11:32Z</time>
      </trkpt>
      <trkpt lat="43.49942" lon="6.2841">
        <ele>144</ele>
        <time>2023-02-10T13:11:38Z</time>
      </trkpt>
      <trkpt lat="43.49939" lon="6.2841">
        <ele>143</ele>
        <time>2023-02-10T13:11:41Z</time>
      </trkpt>
      <trkpt lat="43.49936" lon="6.28408">
        <ele>143</ele>
        <time>2023-02-10T13:11:44Z</time>
      </trkpt>
      <trkpt lat="43.49933" lon="6.28407">
        <ele>144</ele>
        <time>2023-02-10T13:11:47Z</time>
      </trkpt>
      <trkpt lat="43.4993" lon="6.28407">
        <ele>144</ele>
        <time>2023-02-10T13:11:51Z</time>
      </trkpt>
      <trkpt lat="43.49918" lon="6.28409">
        <ele>139</ele>
        <time>2023-02-10T13:12:05Z</time>
      </trkpt>
      <trkpt lat="43.49909" lon="6.28405">
        <ele>139</ele>
        <time>2023-02-10T13:12:15Z</time>
      </trkpt>
      <trkpt lat="43.49906" lon="6.28403">
        <ele>139</ele>
        <time>2023-02-10T13:12:20Z</time>
      </trkpt>
      <trkpt lat="43.49903" lon="6.28403">
        <ele>139</ele>
        <time>2023-02-10T13:12:28Z</time>
      </trkpt>
      <trkpt lat="43.49903" lon="6.28391">
        <ele>142</ele>
        <time>2023-02-10T13:12:37Z</time>
      </trkpt>
      <trkpt lat="43.49904" lon="6.28389">
        <ele>143</ele>
        <time>2023-02-10T13:12:40Z</time>
      </trkpt>
      <trkpt lat="43.49905" lon="6.28385">
        <ele>143</ele>
        <time>2023-02-10T13:12:44Z</time>
      </trkpt>
      <trkpt lat="43.49904" lon="6.28384">
        <ele>140</ele>
        <time>2023-02-10T13:13:03Z</time>
      </trkpt>
      <trkpt lat="43.49902" lon="6.2839">
        <ele>139</ele>
        <time>2023-02-10T13:13:12Z</time>
      </trkpt>
      <trkpt lat="43.49902" lon="6.28393">
        <ele>139</ele>
        <time>2023-02-10T13:13:15Z</time>
      </trkpt>
      <trkpt lat="43.49901" lon="6.28397">
        <ele>139</ele>
        <time>2023-02-10T13:13:25Z</time>
      </trkpt>
      <trkpt lat="43.499" lon="6.28399">
        <ele>142</ele>
        <time>2023-02-10T13:13:53Z</time>
      </trkpt>
      <trkpt lat="43.49897" lon="6.28399">
        <ele>142</ele>
        <time>2023-02-10T13:14:03Z</time>
      </trkpt>
      <trkpt lat="43.49893" lon="6.28402">
        <ele>140</ele>
        <time>2023-02-10T13:14:12Z</time>
      </trkpt>
      <trkpt lat="43.49887" lon="6.28402">
        <ele>139</ele>
        <time>2023-02-10T13:14:18Z</time>
      </trkpt>
      <trkpt lat="43.49877" lon="6.28397">
        <ele>138</ele>
        <time>2023-02-10T13:14:32Z</time>
      </trkpt>
      <trkpt lat="43.49871" lon="6.28397">
        <ele>138</ele>
        <time>2023-02-10T13:14:38Z</time>
      </trkpt>
      <trkpt lat="43.49868" lon="6.28396">
        <ele>138</ele>
        <time>2023-02-10T13:14:41Z</time>
      </trkpt>
      <trkpt lat="43.49865" lon="6.28396">
        <ele>138</ele>
        <time>2023-02-10T13:14:44Z</time>
      </trkpt>
      <trkpt lat="43.49862" lon="6.28397">
        <ele>138</ele>
        <time>2023-02-10T13:14:48Z</time>
      </trkpt>
      <trkpt lat="43.4985" lon="6.28399">
        <ele>136</ele>
        <time>2023-02-10T13:15:02Z</time>
      </trkpt>
      <trkpt lat="43.49847" lon="6.284">
        <ele>136</ele>
        <time>2023-02-10T13:15:05Z</time>
      </trkpt>
      <trkpt lat="43.49842" lon="6.284">
        <ele>136</ele>
        <time>2023-02-10T13:15:12Z</time>
      </trkpt>
      <trkpt lat="43.49839" lon="6.28399">
        <ele>135</ele>
        <time>2023-02-10T13:15:16Z</time>
      </trkpt>
      <trkpt lat="43.49837" lon="6.28397">
        <ele>135</ele>
        <time>2023-02-10T13:15:19Z</time>
      </trkpt>
      <trkpt lat="43.49832" lon="6.28394">
        <ele>136</ele>
        <time>2023-02-10T13:15:25Z</time>
      </trkpt>
      <trkpt lat="43.49828" lon="6.28389">
        <ele>138</ele>
        <time>2023-02-10T13:15:32Z</time>
      </trkpt>
      <trkpt lat="43.49818" lon="6.28379">
        <ele>139</ele>
        <time>2023-02-10T13:15:48Z</time>
      </trkpt>
      <trkpt lat="43.49816" lon="6.28378">
        <ele>139</ele>
        <time>2023-02-10T13:15:50Z</time>
      </trkpt>
      <trkpt lat="43.49811" lon="6.28368">
        <ele>139</ele>
        <time>2023-02-10T13:15:59Z</time>
      </trkpt>
      <trkpt lat="43.49796" lon="6.28343">
        <ele>140</ele>
        <time>2023-02-10T13:16:23Z</time>
      </trkpt>
      <trkpt lat="43.49795" lon="6.28341">
        <ele>140</ele>
        <time>2023-02-10T13:16:25Z</time>
      </trkpt>
      <trkpt lat="43.49793" lon="6.28338">
        <ele>141</ele>
        <time>2023-02-10T13:16:29Z</time>
      </trkpt>
      <trkpt lat="43.49791" lon="6.28335">
        <ele>141</ele>
        <time>2023-02-10T13:16:33Z</time>
      </trkpt>
      <trkpt lat="43.49791" lon="6.28332">
        <ele>142</ele>
        <time>2023-02-10T13:16:47Z</time>
      </trkpt>
      <trkpt lat="43.49789" lon="6.28328">
        <ele>142</ele>
        <time>2023-02-10T13:16:58Z</time>
      </trkpt>
      <trkpt lat="43.49788" lon="6.28325">
        <ele>140</ele>
        <time>2023-02-10T13:17:06Z</time>
      </trkpt>
      <trkpt lat="43.49785" lon="6.28323">
        <ele>139</ele>
        <time>2023-02-10T13:17:21Z</time>
      </trkpt>
      <trkpt lat="43.49782" lon="6.2832">
        <ele>138</ele>
        <time>2023-02-10T13:17:31Z</time>
      </trkpt>
      <trkpt lat="43.4978" lon="6.28317">
        <ele>138</ele>
        <time>2023-02-10T13:17:45Z</time>
      </trkpt>
      <trkpt lat="43.49778" lon="6.28313">
        <ele>135</ele>
        <time>2023-02-10T13:17:52Z</time>
      </trkpt>
      <trkpt lat="43.49775" lon="6.28311">
        <ele>135</ele>
        <time>2023-02-10T13:17:58Z</time>
      </trkpt>
      <trkpt lat="43.49772" lon="6.28309">
        <ele>134</ele>
        <time>2023-02-10T13:18:02Z</time>
      </trkpt>
      <trkpt lat="43.49762" lon="6.28314">
        <ele>133</ele>
        <time>2023-02-10T13:18:10Z</time>
      </trkpt>
      <trkpt lat="43.49756" lon="6.28322">
        <ele>132</ele>
        <time>2023-02-10T13:18:19Z</time>
      </trkpt>
      <trkpt lat="43.49753" lon="6.28323">
        <ele>131</ele>
        <time>2023-02-10T13:18:22Z</time>
      </trkpt>
      <trkpt lat="43.49744" lon="6.28323">
        <ele>131</ele>
        <time>2023-02-10T13:18:32Z</time>
      </trkpt>
      <trkpt lat="43.49741" lon="6.28323">
        <ele>130</ele>
        <time>2023-02-10T13:18:35Z</time>
      </trkpt>
      <trkpt lat="43.49738" lon="6.28323">
        <ele>130</ele>
        <time>2023-02-10T13:18:39Z</time>
      </trkpt>
      <trkpt lat="43.49727" lon="6.28323">
        <ele>130</ele>
        <time>2023-02-10T13:18:48Z</time>
      </trkpt>
      <trkpt lat="43.49706" lon="6.28332">
        <ele>127</ele>
        <time>2023-02-10T13:19:11Z</time>
      </trkpt>
      <trkpt lat="43.49703" lon="6.28333">
        <ele>127</ele>
        <time>2023-02-10T13:19:14Z</time>
      </trkpt>
      <trkpt lat="43.49698" lon="6.28336">
        <ele>129</ele>
        <time>2023-02-10T13:19:22Z</time>
      </trkpt>
      <trkpt lat="43.49695" lon="6.28339">
        <ele>130</ele>
        <time>2023-02-10T13:19:32Z</time>
      </trkpt>
      <trkpt lat="43.49692" lon="6.2834">
        <ele>130</ele>
        <time>2023-02-10T13:19:36Z</time>
      </trkpt>
      <trkpt lat="43.49689" lon="6.28342">
        <ele>130</ele>
        <time>2023-02-10T13:19:41Z</time>
      </trkpt>
      <trkpt lat="43.49686" lon="6.28344">
        <ele>129</ele>
        <time>2023-02-10T13:19:46Z</time>
      </trkpt>
      <trkpt lat="43.49681" lon="6.28346">
        <ele>128</ele>
        <time>2023-02-10T13:19:51Z</time>
      </trkpt>
      <trkpt lat="43.49679" lon="6.28347">
        <ele>128</ele>
        <time>2023-02-10T13:19:54Z</time>
      </trkpt>
      <trkpt lat="43.49671" lon="6.28351">
        <ele>126</ele>
        <time>2023-02-10T13:20:09Z</time>
      </trkpt>
      <trkpt lat="43.49669" lon="6.28354">
        <ele>123</ele>
        <time>2023-02-10T13:20:14Z</time>
      </trkpt>
      <trkpt lat="43.49659" lon="6.28361">
        <ele>117</ele>
        <time>2023-02-10T13:20:27Z</time>
      </trkpt>
      <trkpt lat="43.49656" lon="6.28362">
        <ele>117</ele>
        <time>2023-02-10T13:20:30Z</time>
      </trkpt>
      <trkpt lat="43.4965" lon="6.28365">
        <ele>116</ele>
        <time>2023-02-10T13:20:36Z</time>
      </trkpt>
      <trkpt lat="43.49646" lon="6.28367">
        <ele>117</ele>
        <time>2023-02-10T13:20:41Z</time>
      </trkpt>
      <trkpt lat="43.49643" lon="6.28366">
        <ele>117</ele>
        <time>2023-02-10T13:20:44Z</time>
      </trkpt>
      <trkpt lat="43.49637" lon="6.28364">
        <ele>120</ele>
        <time>2023-02-10T13:20:52Z</time>
      </trkpt>
      <trkpt lat="43.49634" lon="6.28364">
        <ele>122</ele>
        <time>2023-02-10T13:20:55Z</time>
      </trkpt>
      <trkpt lat="43.49631" lon="6.28366">
        <ele>122</ele>
        <time>2023-02-10T13:20:58Z</time>
      </trkpt>
      <trkpt lat="43.49625" lon="6.28367">
        <ele>124</ele>
        <time>2023-02-10T13:21:04Z</time>
      </trkpt>
      <trkpt lat="43.49622" lon="6.28367">
        <ele>123</ele>
        <time>2023-02-10T13:21:08Z</time>
      </trkpt>
      <trkpt lat="43.49619" lon="6.28369">
        <ele>123</ele>
        <time>2023-02-10T13:21:10Z</time>
      </trkpt>
      <trkpt lat="43.49612" lon="6.28373">
        <ele>124</ele>
        <time>2023-02-10T13:21:20Z</time>
      </trkpt>
      <trkpt lat="43.49608" lon="6.28373">
        <ele>124</ele>
        <time>2023-02-10T13:21:25Z</time>
      </trkpt>
      <trkpt lat="43.49606" lon="6.28373">
        <ele>124</ele>
        <time>2023-02-10T13:21:28Z</time>
      </trkpt>
      <trkpt lat="43.49603" lon="6.28375">
        <ele>124</ele>
        <time>2023-02-10T13:21:31Z</time>
      </trkpt>
      <trkpt lat="43.49601" lon="6.28378">
        <ele>124</ele>
        <time>2023-02-10T13:21:34Z</time>
      </trkpt>
      <trkpt lat="43.49599" lon="6.28381">
        <ele>123</ele>
        <time>2023-02-10T13:21:37Z</time>
      </trkpt>
      <trkpt lat="43.49591" lon="6.28388">
        <ele>122</ele>
        <time>2023-02-10T13:21:51Z</time>
      </trkpt>
      <trkpt lat="43.49589" lon="6.28391">
        <ele>122</ele>
        <time>2023-02-10T13:22:00Z</time>
      </trkpt>
      <trkpt lat="43.49586" lon="6.28393">
        <ele>121</ele>
        <time>2023-02-10T13:22:09Z</time>
      </trkpt>
      <trkpt lat="43.49579" lon="6.28394">
        <ele>123</ele>
        <time>2023-02-10T13:22:21Z</time>
      </trkpt>
      <trkpt lat="43.49576" lon="6.28395">
        <ele>123</ele>
        <time>2023-02-10T13:22:25Z</time>
      </trkpt>
      <trkpt lat="43.49574" lon="6.28396">
        <ele>122</ele>
        <time>2023-02-10T13:22:29Z</time>
      </trkpt>
      <trkpt lat="43.49571" lon="6.28396">
        <ele>122</ele>
        <time>2023-02-10T13:22:34Z</time>
      </trkpt>
      <trkpt lat="43.49569" lon="6.28395">
        <ele>122</ele>
        <time>2023-02-10T13:22:37Z</time>
      </trkpt>
      <trkpt lat="43.49567" lon="6.28394">
        <ele>122</ele>
        <time>2023-02-10T13:22:43Z</time>
      </trkpt>
      <trkpt lat="43.49564" lon="6.28395">
        <ele>122</ele>
        <time>2023-02-10T13:22:49Z</time>
      </trkpt>
      <trkpt lat="43.49556" lon="6.28394">
        <ele>119</ele>
        <time>2023-02-10T13:23:07Z</time>
      </trkpt>
      <trkpt lat="43.49554" lon="6.28395">
        <ele>120</ele>
        <time>2023-02-10T13:23:13Z</time>
      </trkpt>
      <trkpt lat="43.49551" lon="6.28395">
        <ele>120</ele>
        <time>2023-02-10T13:23:27Z</time>
      </trkpt>
      <trkpt lat="43.49549" lon="6.28393">
        <ele>121</ele>
        <time>2023-02-10T13:23:56Z</time>
      </trkpt>
      <trkpt lat="43.49547" lon="6.28392">
        <ele>121</ele>
        <time>2023-02-10T13:23:59Z</time>
      </trkpt>
      <trkpt lat="43.49545" lon="6.2839">
        <ele>121</ele>
        <time>2023-02-10T13:24:06Z</time>
      </trkpt>
      <trkpt lat="43.49541" lon="6.28386">
        <ele>123</ele>
        <time>2023-02-10T13:24:17Z</time>
      </trkpt>
      <trkpt lat="43.49537" lon="6.28388">
        <ele>122</ele>
        <time>2023-02-10T13:24:25Z</time>
      </trkpt>
      <trkpt lat="43.49535" lon="6.28388">
        <ele>120</ele>
        <time>2023-02-10T13:24:28Z</time>
      </trkpt>
      <trkpt lat="43.49533" lon="6.28391">
        <ele>119</ele>
        <time>2023-02-10T13:24:33Z</time>
      </trkpt>
      <trkpt lat="43.49528" lon="6.28392">
        <ele>118</ele>
        <time>2023-02-10T13:24:48Z</time>
      </trkpt>
      <trkpt lat="43.49528" lon="6.28392">
        <ele>118</ele>
        <time>2023-02-10T13:25:28Z</time>
      </trkpt>
      <trkpt lat="43.49526" lon="6.28394">
        <ele>119</ele>
        <time>2023-02-10T13:25:56Z</time>
      </trkpt>
      <trkpt lat="43.49523" lon="6.28397">
        <ele>117</ele>
        <time>2023-02-10T13:26:00Z</time>
      </trkpt>
      <trkpt lat="43.49521" lon="6.284">
        <ele>116</ele>
        <time>2023-02-10T13:26:03Z</time>
      </trkpt>
      <trkpt lat="43.49519" lon="6.28403">
        <ele>115</ele>
        <time>2023-02-10T13:26:06Z</time>
      </trkpt>
      <trkpt lat="43.49515" lon="6.28404">
        <ele>114</ele>
        <time>2023-02-10T13:26:09Z</time>
      </trkpt>
      <trkpt lat="43.49511" lon="6.28411">
        <ele>114</ele>
        <time>2023-02-10T13:26:22Z</time>
      </trkpt>
      <trkpt lat="43.49508" lon="6.28412">
        <ele>114</ele>
        <time>2023-02-10T13:26:25Z</time>
      </trkpt>
      <trkpt lat="43.49504" lon="6.28413">
        <ele>112</ele>
        <time>2023-02-10T13:26:30Z</time>
      </trkpt>
      <trkpt lat="43.49499" lon="6.28414">
        <ele>111</ele>
        <time>2023-02-10T13:26:36Z</time>
      </trkpt>
      <trkpt lat="43.49497" lon="6.28416">
        <ele>109</ele>
        <time>2023-02-10T13:26:39Z</time>
      </trkpt>
      <trkpt lat="43.49491" lon="6.28419">
        <ele>108</ele>
        <time>2023-02-10T13:26:46Z</time>
      </trkpt>
      <trkpt lat="43.49489" lon="6.2842">
        <ele>108</ele>
        <time>2023-02-10T13:26:49Z</time>
      </trkpt>
      <trkpt lat="43.49486" lon="6.28421">
        <ele>107</ele>
        <time>2023-02-10T13:26:52Z</time>
      </trkpt>
      <trkpt lat="43.49483" lon="6.28423">
        <ele>106</ele>
        <time>2023-02-10T13:26:56Z</time>
      </trkpt>
      <trkpt lat="43.4948" lon="6.28425">
        <ele>104</ele>
        <time>2023-02-10T13:27:02Z</time>
      </trkpt>
      <trkpt lat="43.49474" lon="6.2843">
        <ele>100</ele>
        <time>2023-02-10T13:27:09Z</time>
      </trkpt>
      <trkpt lat="43.49471" lon="6.28433">
        <ele>97</ele>
        <time>2023-02-10T13:27:13Z</time>
      </trkpt>
      <trkpt lat="43.49468" lon="6.28436">
        <ele>95</ele>
        <time>2023-02-10T13:27:22Z</time>
      </trkpt>
      <trkpt lat="43.49465" lon="6.28439">
        <ele>94</ele>
        <time>2023-02-10T13:27:28Z</time>
      </trkpt>
      <trkpt lat="43.49459" lon="6.28442">
        <ele>94</ele>
        <time>2023-02-10T13:27:50Z</time>
      </trkpt>
      <trkpt lat="43.49455" lon="6.28443">
        <ele>94</ele>
        <time>2023-02-10T13:27:54Z</time>
      </trkpt>
      <trkpt lat="43.49449" lon="6.28447">
        <ele>91</ele>
        <time>2023-02-10T13:28:03Z</time>
      </trkpt>
      <trkpt lat="43.49445" lon="6.28448">
        <ele>90</ele>
        <time>2023-02-10T13:28:08Z</time>
      </trkpt>
      <trkpt lat="43.49441" lon="6.28448">
        <ele>90</ele>
        <time>2023-02-10T13:28:12Z</time>
      </trkpt>
      <trkpt lat="43.49437" lon="6.28451">
        <ele>89</ele>
        <time>2023-02-10T13:28:16Z</time>
      </trkpt>
      <trkpt lat="43.49429" lon="6.28453">
        <ele>89</ele>
        <time>2023-02-10T13:28:24Z</time>
      </trkpt>
      <trkpt lat="43.49417" lon="6.28451">
        <ele>88</ele>
        <time>2023-02-10T13:28:40Z</time>
      </trkpt>
      <trkpt lat="43.49414" lon="6.28449">
        <ele>88</ele>
        <time>2023-02-10T13:28:44Z</time>
      </trkpt>
      <trkpt lat="43.49411" lon="6.28448">
        <ele>88</ele>
        <time>2023-02-10T13:28:48Z</time>
      </trkpt>
      <trkpt lat="43.49403" lon="6.28447">
        <ele>89</ele>
        <time>2023-02-10T13:28:56Z</time>
      </trkpt>
      <trkpt lat="43.49399" lon="6.28447">
        <ele>90</ele>
        <time>2023-02-10T13:29:01Z</time>
      </trkpt>
      <trkpt lat="43.49391" lon="6.28445">
        <ele>93</ele>
        <time>2023-02-10T13:29:11Z</time>
      </trkpt>
      <trkpt lat="43.49388" lon="6.28441">
        <ele>94</ele>
        <time>2023-02-10T13:29:17Z</time>
      </trkpt>
      <trkpt lat="43.49379" lon="6.28437">
        <ele>99</ele>
        <time>2023-02-10T13:29:26Z</time>
      </trkpt>
      <trkpt lat="43.49364" lon="6.28423">
        <ele>107</ele>
        <time>2023-02-10T13:29:46Z</time>
      </trkpt>
      <trkpt lat="43.49361" lon="6.28419">
        <ele>108</ele>
        <time>2023-02-10T13:29:49Z</time>
      </trkpt>
      <trkpt lat="43.49358" lon="6.28416">
        <ele>108</ele>
        <time>2023-02-10T13:29:53Z</time>
      </trkpt>
      <trkpt lat="43.49354" lon="6.2841">
        <ele>109</ele>
        <time>2023-02-10T13:29:58Z</time>
      </trkpt>
      <trkpt lat="43.49352" lon="6.28406">
        <ele>110</ele>
        <time>2023-02-10T13:30:02Z</time>
      </trkpt>
      <trkpt lat="43.49347" lon="6.28398">
        <ele>113</ele>
        <time>2023-02-10T13:30:09Z</time>
      </trkpt>
      <trkpt lat="43.49344" lon="6.28394">
        <ele>113</ele>
        <time>2023-02-10T13:30:13Z</time>
      </trkpt>
      <trkpt lat="43.4934" lon="6.28391">
        <ele>115</ele>
        <time>2023-02-10T13:30:17Z</time>
      </trkpt>
      <trkpt lat="43.49337" lon="6.28386">
        <ele>115</ele>
        <time>2023-02-10T13:30:20Z</time>
      </trkpt>
      <trkpt lat="43.49333" lon="6.28382">
        <ele>116</ele>
        <time>2023-02-10T13:30:24Z</time>
      </trkpt>
      <trkpt lat="43.4933" lon="6.28379">
        <ele>115</ele>
        <time>2023-02-10T13:30:27Z</time>
      </trkpt>
      <trkpt lat="43.49327" lon="6.28376">
        <ele>115</ele>
        <time>2023-02-10T13:30:30Z</time>
      </trkpt>
      <trkpt lat="43.49323" lon="6.28374">
        <ele>115</ele>
        <time>2023-02-10T13:30:34Z</time>
      </trkpt>
      <trkpt lat="43.49318" lon="6.28368">
        <ele>116</ele>
        <time>2023-02-10T13:30:42Z</time>
      </trkpt>
      <trkpt lat="43.49315" lon="6.28366">
        <ele>116</ele>
        <time>2023-02-10T13:30:46Z</time>
      </trkpt>
      <trkpt lat="43.49312" lon="6.28364">
        <ele>116</ele>
        <time>2023-02-10T13:30:50Z</time>
      </trkpt>
      <trkpt lat="43.49308" lon="6.28363">
        <ele>116</ele>
        <time>2023-02-10T13:30:55Z</time>
      </trkpt>
      <trkpt lat="43.49303" lon="6.28363">
        <ele>116</ele>
        <time>2023-02-10T13:31:00Z</time>
      </trkpt>
      <trkpt lat="43.49292" lon="6.28369">
        <ele>111</ele>
        <time>2023-02-10T13:31:17Z</time>
      </trkpt>
      <trkpt lat="43.49284" lon="6.2837">
        <ele>107</ele>
        <time>2023-02-10T13:31:29Z</time>
      </trkpt>
      <trkpt lat="43.49276" lon="6.28372">
        <ele>105</ele>
        <time>2023-02-10T13:31:40Z</time>
      </trkpt>
      <trkpt lat="43.49272" lon="6.28372">
        <ele>105</ele>
        <time>2023-02-10T13:31:45Z</time>
      </trkpt>
      <trkpt lat="43.49258" lon="6.2837">
        <ele>103</ele>
        <time>2023-02-10T13:32:02Z</time>
      </trkpt>
      <trkpt lat="43.49251" lon="6.2837">
        <ele>101</ele>
        <time>2023-02-10T13:32:11Z</time>
      </trkpt>
      <trkpt lat="43.49247" lon="6.2837">
        <ele>101</ele>
        <time>2023-02-10T13:32:15Z</time>
      </trkpt>
      <trkpt lat="43.49237" lon="6.28371">
        <ele>100</ele>
        <time>2023-02-10T13:32:26Z</time>
      </trkpt>
      <trkpt lat="43.49233" lon="6.28371">
        <ele>102</ele>
        <time>2023-02-10T13:32:29Z</time>
      </trkpt>
      <trkpt lat="43.4923" lon="6.28369">
        <ele>104</ele>
        <time>2023-02-10T13:32:33Z</time>
      </trkpt>
      <trkpt lat="43.49227" lon="6.28367">
        <ele>106</ele>
        <time>2023-02-10T13:32:36Z</time>
      </trkpt>
      <trkpt lat="43.49225" lon="6.28364">
        <ele>106</ele>
        <time>2023-02-10T13:32:40Z</time>
      </trkpt>
      <trkpt lat="43.49223" lon="6.2836">
        <ele>107</ele>
        <time>2023-02-10T13:32:45Z</time>
      </trkpt>
      <trkpt lat="43.49221" lon="6.28356">
        <ele>107</ele>
        <time>2023-02-10T13:32:50Z</time>
      </trkpt>
      <trkpt lat="43.49221" lon="6.28352">
        <ele>106</ele>
        <time>2023-02-10T13:32:55Z</time>
      </trkpt>
      <trkpt lat="43.49222" lon="6.28346">
        <ele>107</ele>
        <time>2023-02-10T13:33:01Z</time>
      </trkpt>
      <trkpt lat="43.49224" lon="6.28337">
        <ele>107</ele>
        <time>2023-02-10T13:33:13Z</time>
      </trkpt>
      <trkpt lat="43.49225" lon="6.28332">
        <ele>107</ele>
        <time>2023-02-10T13:33:19Z</time>
      </trkpt>
      <trkpt lat="43.49228" lon="6.28323">
        <ele>106</ele>
        <time>2023-02-10T13:33:27Z</time>
      </trkpt>
      <trkpt lat="43.49228" lon="6.28319">
        <ele>105</ele>
        <time>2023-02-10T13:33:30Z</time>
      </trkpt>
      <trkpt lat="43.4923" lon="6.28311">
        <ele>104</ele>
        <time>2023-02-10T13:33:38Z</time>
      </trkpt>
      <trkpt lat="43.49232" lon="6.28295">
        <ele>102</ele>
        <time>2023-02-10T13:33:52Z</time>
      </trkpt>
      <trkpt lat="43.49233" lon="6.28291">
        <ele>102</ele>
        <time>2023-02-10T13:33:56Z</time>
      </trkpt>
      <trkpt lat="43.49234" lon="6.28288">
        <ele>103</ele>
        <time>2023-02-10T13:34:00Z</time>
      </trkpt>
      <trkpt lat="43.49239" lon="6.2828">
        <ele>107</ele>
        <time>2023-02-10T13:34:13Z</time>
      </trkpt>
      <trkpt lat="43.49241" lon="6.28277">
        <ele>113</ele>
        <time>2023-02-10T13:34:23Z</time>
      </trkpt>
      <trkpt lat="43.49241" lon="6.2827">
        <ele>123</ele>
        <time>2023-02-10T13:34:41Z</time>
      </trkpt>
      <trkpt lat="43.49244" lon="6.28269">
        <ele>127</ele>
        <time>2023-02-10T13:35:07Z</time>
      </trkpt>
      <trkpt lat="43.49246" lon="6.28265">
        <ele>129</ele>
        <time>2023-02-10T13:35:54Z</time>
      </trkpt>
      <trkpt lat="43.49248" lon="6.28263">
        <ele>129</ele>
        <time>2023-02-10T13:36:41Z</time>
      </trkpt>
      <trkpt lat="43.49248" lon="6.2826">
        <ele>129</ele>
        <time>2023-02-10T13:37:02Z</time>
      </trkpt>
      <trkpt lat="43.49251" lon="6.28257">
        <ele>125</ele>
        <time>2023-02-10T13:37:36Z</time>
      </trkpt>
      <trkpt lat="43.49254" lon="6.28253">
        <ele>119</ele>
        <time>2023-02-10T13:39:08Z</time>
      </trkpt>
      <trkpt lat="43.49256" lon="6.28248">
        <ele>116</ele>
        <time>2023-02-10T13:39:14Z</time>
      </trkpt>
      <trkpt lat="43.49255" lon="6.28244">
        <ele>115</ele>
        <time>2023-02-10T13:39:17Z</time>
      </trkpt>
      <trkpt lat="43.49253" lon="6.2824">
        <ele>114</ele>
        <time>2023-02-10T13:39:21Z</time>
      </trkpt>
      <trkpt lat="43.49251" lon="6.28223">
        <ele>113</ele>
        <time>2023-02-10T13:39:34Z</time>
      </trkpt>
      <trkpt lat="43.49251" lon="6.28219">
        <ele>112</ele>
        <time>2023-02-10T13:39:37Z</time>
      </trkpt>
      <trkpt lat="43.4925" lon="6.28215">
        <ele>112</ele>
        <time>2023-02-10T13:39:41Z</time>
      </trkpt>
      <trkpt lat="43.49251" lon="6.28211">
        <ele>112</ele>
        <time>2023-02-10T13:39:48Z</time>
      </trkpt>
      <trkpt lat="43.49254" lon="6.28203">
        <ele>114</ele>
        <time>2023-02-10T13:40:07Z</time>
      </trkpt>
      <trkpt lat="43.49254" lon="6.28198">
        <ele>113</ele>
        <time>2023-02-10T13:40:15Z</time>
      </trkpt>
      <trkpt lat="43.49253" lon="6.28195">
        <ele>112</ele>
        <time>2023-02-10T13:40:19Z</time>
      </trkpt>
      <trkpt lat="43.49252" lon="6.28192">
        <ele>111</ele>
        <time>2023-02-10T13:40:23Z</time>
      </trkpt>
      <trkpt lat="43.49254" lon="6.2818">
        <ele>113</ele>
        <time>2023-02-10T13:40:48Z</time>
      </trkpt>
      <trkpt lat="43.49258" lon="6.28173">
        <ele>113</ele>
        <time>2023-02-10T13:41:00Z</time>
      </trkpt>
      <trkpt lat="43.49259" lon="6.28169">
        <ele>113</ele>
        <time>2023-02-10T13:41:04Z</time>
      </trkpt>
      <trkpt lat="43.49261" lon="6.28165">
        <ele>112</ele>
        <time>2023-02-10T13:41:09Z</time>
      </trkpt>
      <trkpt lat="43.49262" lon="6.28162">
        <ele>112</ele>
        <time>2023-02-10T13:41:16Z</time>
      </trkpt>
      <trkpt lat="43.49265" lon="6.2816">
        <ele>114</ele>
        <time>2023-02-10T13:41:25Z</time>
      </trkpt>
      <trkpt lat="43.49268" lon="6.28156">
        <ele>117</ele>
        <time>2023-02-10T13:41:32Z</time>
      </trkpt>
      <trkpt lat="43.49267" lon="6.28152">
        <ele>120</ele>
        <time>2023-02-10T13:41:39Z</time>
      </trkpt>
      <trkpt lat="43.49268" lon="6.28148">
        <ele>124</ele>
        <time>2023-02-10T13:42:49Z</time>
      </trkpt>
      <trkpt lat="43.49271" lon="6.2814">
        <ele>129</ele>
        <time>2023-02-10T13:43:09Z</time>
      </trkpt>
      <trkpt lat="43.49274" lon="6.28138">
        <ele>129</ele>
        <time>2023-02-10T13:43:16Z</time>
      </trkpt>
      <trkpt lat="43.49276" lon="6.28139">
        <ele>128</ele>
        <time>2023-02-10T13:43:32Z</time>
      </trkpt>
      <trkpt lat="43.49282" lon="6.28126">
        <ele>126</ele>
        <time>2023-02-10T13:44:04Z</time>
      </trkpt>
      <trkpt lat="43.49289" lon="6.2812">
        <ele>127</ele>
        <time>2023-02-10T13:44:16Z</time>
      </trkpt>
      <trkpt lat="43.49295" lon="6.28114">
        <ele>128</ele>
        <time>2023-02-10T13:44:27Z</time>
      </trkpt>
      <trkpt lat="43.49296" lon="6.28111">
        <ele>127</ele>
        <time>2023-02-10T13:44:33Z</time>
      </trkpt>
      <trkpt lat="43.49298" lon="6.28106">
        <ele>126</ele>
        <time>2023-02-10T13:44:39Z</time>
      </trkpt>
      <trkpt lat="43.49297" lon="6.28101">
        <ele>126</ele>
        <time>2023-02-10T13:44:45Z</time>
      </trkpt>
      <trkpt lat="43.49301" lon="6.28088">
        <ele>127</ele>
        <time>2023-02-10T13:45:03Z</time>
      </trkpt>
      <trkpt lat="43.49302" lon="6.28084">
        <ele>126</ele>
        <time>2023-02-10T13:45:08Z</time>
      </trkpt>
      <trkpt lat="43.493" lon="6.28079">
        <ele>126</ele>
        <time>2023-02-10T13:45:13Z</time>
      </trkpt>
      <trkpt lat="43.49302" lon="6.28076">
        <ele>128</ele>
        <time>2023-02-10T13:46:03Z</time>
      </trkpt>
      <trkpt lat="43.49304" lon="6.28074">
        <ele>128</ele>
        <time>2023-02-10T13:46:10Z</time>
      </trkpt>
      <trkpt lat="43.49305" lon="6.28069">
        <ele>125</ele>
        <time>2023-02-10T13:46:15Z</time>
      </trkpt>
      <trkpt lat="43.49307" lon="6.28066">
        <ele>126</ele>
        <time>2023-02-10T13:46:22Z</time>
      </trkpt>
      <trkpt lat="43.49309" lon="6.28059">
        <ele>126</ele>
        <time>2023-02-10T13:46:32Z</time>
      </trkpt>
      <trkpt lat="43.49308" lon="6.28055">
        <ele>125</ele>
        <time>2023-02-10T13:46:37Z</time>
      </trkpt>
      <trkpt lat="43.49307" lon="6.28053">
        <ele>124</ele>
        <time>2023-02-10T13:46:40Z</time>
      </trkpt>
      <trkpt lat="43.49304" lon="6.28049">
        <ele>125</ele>
        <time>2023-02-10T13:46:46Z</time>
      </trkpt>
      <trkpt lat="43.49303" lon="6.28044">
        <ele>127</ele>
        <time>2023-02-10T13:46:52Z</time>
      </trkpt>
      <trkpt lat="43.49304" lon="6.2804">
        <ele>126</ele>
        <time>2023-02-10T13:46:57Z</time>
      </trkpt>
      <trkpt lat="43.49302" lon="6.28032">
        <ele>124</ele>
        <time>2023-02-10T13:47:05Z</time>
      </trkpt>
      <trkpt lat="43.49302" lon="6.28028">
        <ele>123</ele>
        <time>2023-02-10T13:47:08Z</time>
      </trkpt>
      <trkpt lat="43.49301" lon="6.28024">
        <ele>123</ele>
        <time>2023-02-10T13:47:11Z</time>
      </trkpt>
      <trkpt lat="43.493" lon="6.28016">
        <ele>123</ele>
        <time>2023-02-10T13:47:20Z</time>
      </trkpt>
      <trkpt lat="43.49299" lon="6.27993">
        <ele>124</ele>
        <time>2023-02-10T13:47:44Z</time>
      </trkpt>
      <trkpt lat="43.493" lon="6.27989">
        <ele>125</ele>
        <time>2023-02-10T13:47:47Z</time>
      </trkpt>
      <trkpt lat="43.49302" lon="6.27986">
        <ele>125</ele>
        <time>2023-02-10T13:47:50Z</time>
      </trkpt>
      <trkpt lat="43.49303" lon="6.27981">
        <ele>125</ele>
        <time>2023-02-10T13:47:56Z</time>
      </trkpt>
      <trkpt lat="43.49308" lon="6.27973">
        <ele>125</ele>
        <time>2023-02-10T13:48:05Z</time>
      </trkpt>
      <trkpt lat="43.49308" lon="6.27968">
        <ele>125</ele>
        <time>2023-02-10T13:48:11Z</time>
      </trkpt>
      <trkpt lat="43.49308" lon="6.27962">
        <ele>124</ele>
        <time>2023-02-10T13:48:17Z</time>
      </trkpt>
      <trkpt lat="43.49308" lon="6.27959">
        <ele>124</ele>
        <time>2023-02-10T13:48:20Z</time>
      </trkpt>
      <trkpt lat="43.49308" lon="6.27954">
        <ele>124</ele>
        <time>2023-02-10T13:48:25Z</time>
      </trkpt>
      <trkpt lat="43.4931" lon="6.2795">
        <ele>125</ele>
        <time>2023-02-10T13:48:49Z</time>
      </trkpt>
      <trkpt lat="43.49309" lon="6.27944">
        <ele>126</ele>
        <time>2023-02-10T13:48:55Z</time>
      </trkpt>
      <trkpt lat="43.49312" lon="6.27941">
        <ele>126</ele>
        <time>2023-02-10T13:49:04Z</time>
      </trkpt>
      <trkpt lat="43.49312" lon="6.27939">
        <ele>129</ele>
        <time>2023-02-10T13:50:41Z</time>
      </trkpt>
      <trkpt lat="43.49315" lon="6.27938">
        <ele>129</ele>
        <time>2023-02-10T13:50:45Z</time>
      </trkpt>
      <trkpt lat="43.49317" lon="6.27936">
        <ele>128</ele>
        <time>2023-02-10T13:51:32Z</time>
      </trkpt>
      <trkpt lat="43.49316" lon="6.27932">
        <ele>130</ele>
        <time>2023-02-10T13:56:49Z</time>
      </trkpt>
      <trkpt lat="43.49314" lon="6.27929">
        <ele>131</ele>
        <time>2023-02-10T13:56:53Z</time>
      </trkpt>
      <trkpt lat="43.49312" lon="6.27925">
        <ele>131</ele>
        <time>2023-02-10T13:56:58Z</time>
      </trkpt>
      <trkpt lat="43.49311" lon="6.27922">
        <ele>129</ele>
        <time>2023-02-10T13:57:07Z</time>
      </trkpt>
      <trkpt lat="43.49309" lon="6.27919">
        <ele>129</ele>
        <time>2023-02-10T13:57:13Z</time>
      </trkpt>
      <trkpt lat="43.49307" lon="6.27911">
        <ele>130</ele>
        <time>2023-02-10T13:57:28Z</time>
      </trkpt>
      <trkpt lat="43.49305" lon="6.27906">
        <ele>130</ele>
        <time>2023-02-10T13:57:42Z</time>
      </trkpt>
      <trkpt lat="43.49304" lon="6.27901">
        <ele>130</ele>
        <time>2023-02-10T13:57:49Z</time>
      </trkpt>
      <trkpt lat="43.49303" lon="6.27897">
        <ele>129</ele>
        <time>2023-02-10T13:57:54Z</time>
      </trkpt>
      <trkpt lat="43.49303" lon="6.27883">
        <ele>130</ele>
        <time>2023-02-10T13:58:29Z</time>
      </trkpt>
      <trkpt lat="43.49304" lon="6.27879">
        <ele>129</ele>
        <time>2023-02-10T13:58:32Z</time>
      </trkpt>
      <trkpt lat="43.49305" lon="6.27875">
        <ele>128</ele>
        <time>2023-02-10T13:58:35Z</time>
      </trkpt>
      <trkpt lat="43.49305" lon="6.27871">
        <ele>129</ele>
        <time>2023-02-10T13:58:39Z</time>
      </trkpt>
      <trkpt lat="43.49303" lon="6.27867">
        <ele>129</ele>
        <time>2023-02-10T13:58:46Z</time>
      </trkpt>
      <trkpt lat="43.49304" lon="6.27864">
        <ele>129</ele>
        <time>2023-02-10T13:58:52Z</time>
      </trkpt>
      <trkpt lat="43.49305" lon="6.2786">
        <ele>128</ele>
        <time>2023-02-10T13:59:41Z</time>
      </trkpt>
      <trkpt lat="43.49305" lon="6.27856">
        <ele>129</ele>
        <time>2023-02-10T13:59:44Z</time>
      </trkpt>
      <trkpt lat="43.49307" lon="6.27852">
        <ele>129</ele>
        <time>2023-02-10T13:59:47Z</time>
      </trkpt>
      <trkpt lat="43.49308" lon="6.27834">
        <ele>130</ele>
        <time>2023-02-10T14:00:01Z</time>
      </trkpt>
      <trkpt lat="43.49308" lon="6.27829">
        <ele>130</ele>
        <time>2023-02-10T14:00:05Z</time>
      </trkpt>
      <trkpt lat="43.49311" lon="6.27787">
        <ele>130</ele>
        <time>2023-02-10T14:00:36Z</time>
      </trkpt>
      <trkpt lat="43.49312" lon="6.27774">
        <ele>131</ele>
        <time>2023-02-10T14:00:47Z</time>
      </trkpt>
      <trkpt lat="43.49312" lon="6.2777">
        <ele>131</ele>
        <time>2023-02-10T14:00:52Z</time>
      </trkpt>
      <trkpt lat="43.49312" lon="6.27765">
        <ele>131</ele>
        <time>2023-02-10T14:00:55Z</time>
      </trkpt>
      <trkpt lat="43.49315" lon="6.27747">
        <ele>131</ele>
        <time>2023-02-10T14:01:08Z</time>
      </trkpt>
      <trkpt lat="43.49316" lon="6.27739">
        <ele>130</ele>
        <time>2023-02-10T14:01:15Z</time>
      </trkpt>
      <trkpt lat="43.49313" lon="6.2773">
        <ele>132</ele>
        <time>2023-02-10T14:01:33Z</time>
      </trkpt>
      <trkpt lat="43.49312" lon="6.27729">
        <ele>135</ele>
        <time>2023-02-10T14:03:09Z</time>
      </trkpt>
      <trkpt lat="43.49311" lon="6.27726">
        <ele>135</ele>
        <time>2023-02-10T14:03:20Z</time>
      </trkpt>
      <trkpt lat="43.49312" lon="6.27723">
        <ele>135</ele>
        <time>2023-02-10T14:03:25Z</time>
      </trkpt>
      <trkpt lat="43.49312" lon="6.27721">
        <ele>133</ele>
        <time>2023-02-10T14:13:30Z</time>
      </trkpt>
      <trkpt lat="43.49313" lon="6.27718">
        <ele>133</ele>
        <time>2023-02-10T14:16:01Z</time>
      </trkpt>
      <trkpt lat="43.49318" lon="6.27722">
        <ele>134</ele>
        <time>2023-02-10T14:16:33Z</time>
      </trkpt>
      <trkpt lat="43.49323" lon="6.27723">
        <ele>135</ele>
        <time>2023-02-10T14:16:39Z</time>
      </trkpt>
      <trkpt lat="43.49326" lon="6.27722">
        <ele>136</ele>
        <time>2023-02-10T14:16:43Z</time>
      </trkpt>
      <trkpt lat="43.49333" lon="6.27718">
        <ele>135</ele>
        <time>2023-02-10T14:16:52Z</time>
      </trkpt>
      <trkpt lat="43.49336" lon="6.27715">
        <ele>136</ele>
        <time>2023-02-10T14:16:56Z</time>
      </trkpt>
      <trkpt lat="43.49339" lon="6.27712">
        <ele>136</ele>
        <time>2023-02-10T14:17:00Z</time>
      </trkpt>
      <trkpt lat="43.49341" lon="6.27708">
        <ele>136</ele>
        <time>2023-02-10T14:17:04Z</time>
      </trkpt>
      <trkpt lat="43.49344" lon="6.27706">
        <ele>136</ele>
        <time>2023-02-10T14:17:08Z</time>
      </trkpt>
      <trkpt lat="43.49346" lon="6.27702">
        <ele>136</ele>
        <time>2023-02-10T14:17:12Z</time>
      </trkpt>
      <trkpt lat="43.49348" lon="6.27698">
        <ele>137</ele>
        <time>2023-02-10T14:17:16Z</time>
      </trkpt>
      <trkpt lat="43.49351" lon="6.27695">
        <ele>138</ele>
        <time>2023-02-10T14:17:21Z</time>
      </trkpt>
      <trkpt lat="43.49354" lon="6.27692">
        <ele>138</ele>
        <time>2023-02-10T14:17:26Z</time>
      </trkpt>
      <trkpt lat="43.49356" lon="6.27688">
        <ele>138</ele>
        <time>2023-02-10T14:17:31Z</time>
      </trkpt>
      <trkpt lat="43.49359" lon="6.27684">
        <ele>138</ele>
        <time>2023-02-10T14:17:36Z</time>
      </trkpt>
      <trkpt lat="43.49361" lon="6.27681">
        <ele>139</ele>
        <time>2023-02-10T14:17:39Z</time>
      </trkpt>
      <trkpt lat="43.49363" lon="6.27677">
        <ele>139</ele>
        <time>2023-02-10T14:17:43Z</time>
      </trkpt>
      <trkpt lat="43.49368" lon="6.27668">
        <ele>139</ele>
        <time>2023-02-10T14:17:52Z</time>
      </trkpt>
      <trkpt lat="43.49369" lon="6.27664">
        <ele>139</ele>
        <time>2023-02-10T14:17:56Z</time>
      </trkpt>
      <trkpt lat="43.49377" lon="6.27638">
        <ele>141</ele>
        <time>2023-02-10T14:18:18Z</time>
      </trkpt>
      <trkpt lat="43.49379" lon="6.27633">
        <ele>142</ele>
        <time>2023-02-10T14:18:22Z</time>
      </trkpt>
      <trkpt lat="43.49381" lon="6.27629">
        <ele>142</ele>
        <time>2023-02-10T14:18:25Z</time>
      </trkpt>
      <trkpt lat="43.49382" lon="6.27626">
        <ele>142</ele>
        <time>2023-02-10T14:18:28Z</time>
      </trkpt>
      <trkpt lat="43.49394" lon="6.27611">
        <ele>142</ele>
        <time>2023-02-10T14:18:47Z</time>
      </trkpt>
      <trkpt lat="43.494" lon="6.27601">
        <ele>143</ele>
        <time>2023-02-10T14:18:57Z</time>
      </trkpt>
      <trkpt lat="43.49403" lon="6.27597">
        <ele>143</ele>
        <time>2023-02-10T14:19:01Z</time>
      </trkpt>
      <trkpt lat="43.49406" lon="6.27594">
        <ele>144</ele>
        <time>2023-02-10T14:19:04Z</time>
      </trkpt>
      <trkpt lat="43.4941" lon="6.27588">
        <ele>144</ele>
        <time>2023-02-10T14:19:10Z</time>
      </trkpt>
      <trkpt lat="43.49413" lon="6.27576">
        <ele>143</ele>
        <time>2023-02-10T14:19:20Z</time>
      </trkpt>
      <trkpt lat="43.49418" lon="6.27562">
        <ele>144</ele>
        <time>2023-02-10T14:19:32Z</time>
      </trkpt>
      <trkpt lat="43.49423" lon="6.27549">
        <ele>143</ele>
        <time>2023-02-10T14:19:42Z</time>
      </trkpt>
      <trkpt lat="43.49426" lon="6.27544">
        <ele>144</ele>
        <time>2023-02-10T14:19:47Z</time>
      </trkpt>
      <trkpt lat="43.49429" lon="6.2754">
        <ele>143</ele>
        <time>2023-02-10T14:19:50Z</time>
      </trkpt>
      <trkpt lat="43.49435" lon="6.2753">
        <ele>143</ele>
        <time>2023-02-10T14:19:59Z</time>
      </trkpt>
      <trkpt lat="43.49439" lon="6.27521">
        <ele>144</ele>
        <time>2023-02-10T14:20:07Z</time>
      </trkpt>
      <trkpt lat="43.49442" lon="6.27511">
        <ele>144</ele>
        <time>2023-02-10T14:20:15Z</time>
      </trkpt>
      <trkpt lat="43.49448" lon="6.27495">
        <ele>145</ele>
        <time>2023-02-10T14:20:27Z</time>
      </trkpt>
      <trkpt lat="43.49455" lon="6.27476">
        <ele>145</ele>
        <time>2023-02-10T14:20:43Z</time>
      </trkpt>
      <trkpt lat="43.49463" lon="6.2746">
        <ele>146</ele>
        <time>2023-02-10T14:20:55Z</time>
      </trkpt>
      <trkpt lat="43.49471" lon="6.2744">
        <ele>146</ele>
        <time>2023-02-10T14:21:12Z</time>
      </trkpt>
      <trkpt lat="43.49471" lon="6.27434">
        <ele>145</ele>
        <time>2023-02-10T14:21:16Z</time>
      </trkpt>
      <trkpt lat="43.49475" lon="6.2743">
        <ele>145</ele>
        <time>2023-02-10T14:21:21Z</time>
      </trkpt>
      <trkpt lat="43.49479" lon="6.27431">
        <ele>145</ele>
        <time>2023-02-10T14:21:25Z</time>
      </trkpt>
      <trkpt lat="43.49488" lon="6.27435">
        <ele>145</ele>
        <time>2023-02-10T14:21:35Z</time>
      </trkpt>
      <trkpt lat="43.49492" lon="6.27435">
        <ele>146</ele>
        <time>2023-02-10T14:21:39Z</time>
      </trkpt>
      <trkpt lat="43.49496" lon="6.27437">
        <ele>147</ele>
        <time>2023-02-10T14:21:43Z</time>
      </trkpt>
      <trkpt lat="43.49503" lon="6.27443">
        <ele>147</ele>
        <time>2023-02-10T14:21:53Z</time>
      </trkpt>
      <trkpt lat="43.49511" lon="6.27447">
        <ele>149</ele>
        <time>2023-02-10T14:22:03Z</time>
      </trkpt>
      <trkpt lat="43.49515" lon="6.27447">
        <ele>150</ele>
        <time>2023-02-10T14:22:07Z</time>
      </trkpt>
      <trkpt lat="43.49523" lon="6.27443">
        <ele>150</ele>
        <time>2023-02-10T14:22:19Z</time>
      </trkpt>
      <trkpt lat="43.49526" lon="6.2744">
        <ele>150</ele>
        <time>2023-02-10T14:22:24Z</time>
      </trkpt>
      <trkpt lat="43.49533" lon="6.27436">
        <ele>150</ele>
        <time>2023-02-10T14:22:30Z</time>
      </trkpt>
      <trkpt lat="43.49545" lon="6.27434">
        <ele>153</ele>
        <time>2023-02-10T14:22:44Z</time>
      </trkpt>
      <trkpt lat="43.49549" lon="6.27432">
        <ele>154</ele>
        <time>2023-02-10T14:22:50Z</time>
      </trkpt>
      <trkpt lat="43.49552" lon="6.27429">
        <ele>155</ele>
        <time>2023-02-10T14:22:54Z</time>
      </trkpt>
      <trkpt lat="43.49553" lon="6.27425">
        <ele>155</ele>
        <time>2023-02-10T14:22:58Z</time>
      </trkpt>
      <trkpt lat="43.49555" lon="6.2742">
        <ele>155</ele>
        <time>2023-02-10T14:23:02Z</time>
      </trkpt>
      <trkpt lat="43.49559" lon="6.27418">
        <ele>155</ele>
        <time>2023-02-10T14:23:06Z</time>
      </trkpt>
      <trkpt lat="43.49567" lon="6.27408">
        <ele>157</ele>
        <time>2023-02-10T14:23:20Z</time>
      </trkpt>
      <trkpt lat="43.49571" lon="6.27405">
        <ele>158</ele>
        <time>2023-02-10T14:23:25Z</time>
      </trkpt>
      <trkpt lat="43.49576" lon="6.27396">
        <ele>160</ele>
        <time>2023-02-10T14:23:34Z</time>
      </trkpt>
      <trkpt lat="43.49581" lon="6.27393">
        <ele>161</ele>
        <time>2023-02-10T14:23:39Z</time>
      </trkpt>
      <trkpt lat="43.49583" lon="6.27388">
        <ele>161</ele>
        <time>2023-02-10T14:23:44Z</time>
      </trkpt>
      <trkpt lat="43.49586" lon="6.27383">
        <ele>162</ele>
        <time>2023-02-10T14:23:49Z</time>
      </trkpt>
      <trkpt lat="43.49589" lon="6.27378">
        <ele>162</ele>
        <time>2023-02-10T14:23:56Z</time>
      </trkpt>
      <trkpt lat="43.49596" lon="6.27375">
        <ele>163</ele>
        <time>2023-02-10T14:24:05Z</time>
      </trkpt>
      <trkpt lat="43.49599" lon="6.27374">
        <ele>163</ele>
        <time>2023-02-10T14:24:10Z</time>
      </trkpt>
      <trkpt lat="43.49603" lon="6.27374">
        <ele>164</ele>
        <time>2023-02-10T14:24:15Z</time>
      </trkpt>
      <trkpt lat="43.49615" lon="6.27371">
        <ele>168</ele>
        <time>2023-02-10T14:24:34Z</time>
      </trkpt>
      <trkpt lat="43.49619" lon="6.27372">
        <ele>169</ele>
        <time>2023-02-10T14:24:39Z</time>
      </trkpt>
      <trkpt lat="43.49626" lon="6.2737">
        <ele>169</ele>
        <time>2023-02-10T14:24:50Z</time>
      </trkpt>
      <trkpt lat="43.49629" lon="6.27366">
        <ele>169</ele>
        <time>2023-02-10T14:24:55Z</time>
      </trkpt>
      <trkpt lat="43.49632" lon="6.27364">
        <ele>168</ele>
        <time>2023-02-10T14:25:00Z</time>
      </trkpt>
      <trkpt lat="43.49637" lon="6.27364">
        <ele>169</ele>
        <time>2023-02-10T14:25:04Z</time>
      </trkpt>
      <trkpt lat="43.49653" lon="6.27362">
        <ele>168</ele>
        <time>2023-02-10T14:25:23Z</time>
      </trkpt>
      <trkpt lat="43.49655" lon="6.27359">
        <ele>168</ele>
        <time>2023-02-10T14:25:28Z</time>
      </trkpt>
      <trkpt lat="43.49659" lon="6.27362">
        <ele>169</ele>
        <time>2023-02-10T14:25:38Z</time>
      </trkpt>
      <trkpt lat="43.49675" lon="6.27358">
        <ele>171</ele>
        <time>2023-02-10T14:26:13Z</time>
      </trkpt>
      <trkpt lat="43.49682" lon="6.27355">
        <ele>173</ele>
        <time>2023-02-10T14:26:45Z</time>
      </trkpt>
      <trkpt lat="43.49685" lon="6.27357">
        <ele>171</ele>
        <time>2023-02-10T14:26:54Z</time>
      </trkpt>
      <trkpt lat="43.49687" lon="6.27362">
        <ele>170</ele>
        <time>2023-02-10T14:27:00Z</time>
      </trkpt>
      <trkpt lat="43.49689" lon="6.27366">
        <ele>168</ele>
        <time>2023-02-10T14:27:04Z</time>
      </trkpt>
      <trkpt lat="43.49693" lon="6.27374">
        <ele>166</ele>
        <time>2023-02-10T14:27:14Z</time>
      </trkpt>
      <trkpt lat="43.49695" lon="6.27378">
        <ele>165</ele>
        <time>2023-02-10T14:27:21Z</time>
      </trkpt>
      <trkpt lat="43.497" lon="6.2739">
        <ele>164</ele>
        <time>2023-02-10T14:27:40Z</time>
      </trkpt>
      <trkpt lat="43.497" lon="6.27394">
        <ele>166</ele>
        <time>2023-02-10T14:28:32Z</time>
      </trkpt>
      <trkpt lat="43.49702" lon="6.27398">
        <ele>167</ele>
        <time>2023-02-10T14:29:06Z</time>
      </trkpt>
      <trkpt lat="43.49704" lon="6.27402">
        <ele>170</ele>
        <time>2023-02-10T14:29:17Z</time>
      </trkpt>
      <trkpt lat="43.49706" lon="6.27408">
        <ele>172</ele>
        <time>2023-02-10T14:29:29Z</time>
      </trkpt>
      <trkpt lat="43.49705" lon="6.27413">
        <ele>170</ele>
        <time>2023-02-10T14:29:53Z</time>
      </trkpt>
      <trkpt lat="43.49704" lon="6.27417">
        <ele>170</ele>
        <time>2023-02-10T14:29:59Z</time>
      </trkpt>
      <trkpt lat="43.49702" lon="6.27422">
        <ele>169</ele>
        <time>2023-02-10T14:30:04Z</time>
      </trkpt>
      <trkpt lat="43.49703" lon="6.27426">
        <ele>169</ele>
        <time>2023-02-10T14:30:15Z</time>
      </trkpt>
      <trkpt lat="43.49706" lon="6.27429">
        <ele>169</ele>
        <time>2023-02-10T14:30:26Z</time>
      </trkpt>
      <trkpt lat="43.49705" lon="6.27436">
        <ele>170</ele>
        <time>2023-02-10T14:31:11Z</time>
      </trkpt>
      <trkpt lat="43.497" lon="6.27447">
        <ele>169</ele>
        <time>2023-02-10T14:31:20Z</time>
      </trkpt>
      <trkpt lat="43.49698" lon="6.2745">
        <ele>168</ele>
        <time>2023-02-10T14:31:23Z</time>
      </trkpt>
      <trkpt lat="43.49697" lon="6.27457">
        <ele>167</ele>
        <time>2023-02-10T14:31:27Z</time>
      </trkpt>
      <trkpt lat="43.49696" lon="6.27463">
        <ele>167</ele>
        <time>2023-02-10T14:31:30Z</time>
      </trkpt>
      <trkpt lat="43.49696" lon="6.27468">
        <ele>167</ele>
        <time>2023-02-10T14:31:33Z</time>
      </trkpt>
      <trkpt lat="43.49697" lon="6.27473">
        <ele>167</ele>
        <time>2023-02-10T14:31:39Z</time>
      </trkpt>
      <trkpt lat="43.49691" lon="6.27479">
        <ele>167</ele>
        <time>2023-02-10T14:31:55Z</time>
      </trkpt>
      <trkpt lat="43.49689" lon="6.27495">
        <ele>167</ele>
        <time>2023-02-10T14:32:07Z</time>
      </trkpt>
      <trkpt lat="43.49688" lon="6.27504">
        <ele>168</ele>
        <time>2023-02-10T14:32:14Z</time>
      </trkpt>
      <trkpt lat="43.49688" lon="6.27509">
        <ele>167</ele>
        <time>2023-02-10T14:32:17Z</time>
      </trkpt>
      <trkpt lat="43.49689" lon="6.27512">
        <ele>166</ele>
        <time>2023-02-10T14:32:19Z</time>
      </trkpt>
      <trkpt lat="43.4969" lon="6.27523">
        <ele>165</ele>
        <time>2023-02-10T14:32:26Z</time>
      </trkpt>
      <trkpt lat="43.49691" lon="6.27533">
        <ele>165</ele>
        <time>2023-02-10T14:32:34Z</time>
      </trkpt>
      <trkpt lat="43.49697" lon="6.27546">
        <ele>164</ele>
        <time>2023-02-10T14:32:45Z</time>
      </trkpt>
      <trkpt lat="43.497" lon="6.27549">
        <ele>163</ele>
        <time>2023-02-10T14:32:49Z</time>
      </trkpt>
      <trkpt lat="43.49702" lon="6.27547">
        <ele>163</ele>
        <time>2023-02-10T14:32:54Z</time>
      </trkpt>
      <trkpt lat="43.49705" lon="6.27539">
        <ele>164</ele>
        <time>2023-02-10T14:33:00Z</time>
      </trkpt>
      <trkpt lat="43.49706" lon="6.27535">
        <ele>164</ele>
        <time>2023-02-10T14:33:04Z</time>
      </trkpt>
      <trkpt lat="43.49708" lon="6.27531">
        <ele>163</ele>
        <time>2023-02-10T14:33:07Z</time>
      </trkpt>
      <trkpt lat="43.49709" lon="6.27527">
        <ele>163</ele>
        <time>2023-02-10T14:33:10Z</time>
      </trkpt>
      <trkpt lat="43.49714" lon="6.27516">
        <ele>162</ele>
        <time>2023-02-10T14:33:20Z</time>
      </trkpt>
      <trkpt lat="43.49718" lon="6.27514">
        <ele>161</ele>
        <time>2023-02-10T14:33:26Z</time>
      </trkpt>
      <trkpt lat="43.49728" lon="6.27507">
        <ele>159</ele>
        <time>2023-02-10T14:33:41Z</time>
      </trkpt>
      <trkpt lat="43.49737" lon="6.27501">
        <ele>160</ele>
        <time>2023-02-10T14:33:50Z</time>
      </trkpt>
      <trkpt lat="43.4975" lon="6.27491">
        <ele>161</ele>
        <time>2023-02-10T14:34:02Z</time>
      </trkpt>
      <trkpt lat="43.49752" lon="6.27491">
        <ele>163</ele>
        <time>2023-02-10T14:34:25Z</time>
      </trkpt>
      <trkpt lat="43.49753" lon="6.27487">
        <ele>163</ele>
        <time>2023-02-10T14:34:29Z</time>
      </trkpt>
      <trkpt lat="43.49753" lon="6.27478">
        <ele>162</ele>
        <time>2023-02-10T14:34:37Z</time>
      </trkpt>
      <trkpt lat="43.49756" lon="6.27469">
        <ele>160</ele>
        <time>2023-02-10T14:34:45Z</time>
      </trkpt>
      <trkpt lat="43.49766" lon="6.27441">
        <ele>156</ele>
        <time>2023-02-10T14:35:07Z</time>
      </trkpt>
      <trkpt lat="43.49773" lon="6.27428">
        <ele>155</ele>
        <time>2023-02-10T14:35:17Z</time>
      </trkpt>
      <trkpt lat="43.49781" lon="6.27411">
        <ele>154</ele>
        <time>2023-02-10T14:35:30Z</time>
      </trkpt>
      <trkpt lat="43.49791" lon="6.27397">
        <ele>151</ele>
        <time>2023-02-10T14:35:42Z</time>
      </trkpt>
      <trkpt lat="43.49794" lon="6.2739">
        <ele>152</ele>
        <time>2023-02-10T14:35:48Z</time>
      </trkpt>
      <trkpt lat="43.498" lon="6.27379">
        <ele>153</ele>
        <time>2023-02-10T14:35:57Z</time>
      </trkpt>
      <trkpt lat="43.49801" lon="6.27374">
        <ele>153</ele>
        <time>2023-02-10T14:36:01Z</time>
      </trkpt>
      <trkpt lat="43.49808" lon="6.27362">
        <ele>152</ele>
        <time>2023-02-10T14:36:11Z</time>
      </trkpt>
      <trkpt lat="43.4981" lon="6.27358">
        <ele>152</ele>
        <time>2023-02-10T14:36:15Z</time>
      </trkpt>
      <trkpt lat="43.49812" lon="6.27354">
        <ele>151</ele>
        <time>2023-02-10T14:36:19Z</time>
      </trkpt>
      <trkpt lat="43.49817" lon="6.27343">
        <ele>149</ele>
        <time>2023-02-10T14:36:28Z</time>
      </trkpt>
      <trkpt lat="43.49827" lon="6.27327">
        <ele>149</ele>
        <time>2023-02-10T14:36:42Z</time>
      </trkpt>
      <trkpt lat="43.49834" lon="6.27317">
        <ele>149</ele>
        <time>2023-02-10T14:36:52Z</time>
      </trkpt>
      <trkpt lat="43.49836" lon="6.27313">
        <ele>149</ele>
        <time>2023-02-10T14:36:55Z</time>
      </trkpt>
      <trkpt lat="43.49838" lon="6.27311">
        <ele>149</ele>
        <time>2023-02-10T14:36:58Z</time>
      </trkpt>
      <trkpt lat="43.4985" lon="6.27294">
        <ele>148</ele>
        <time>2023-02-10T14:37:14Z</time>
      </trkpt>
      <trkpt lat="43.49863" lon="6.27276">
        <ele>148</ele>
        <time>2023-02-10T14:37:32Z</time>
      </trkpt>
      <trkpt lat="43.49865" lon="6.27272">
        <ele>149</ele>
        <time>2023-02-10T14:37:36Z</time>
      </trkpt>
      <trkpt lat="43.49867" lon="6.27269">
        <ele>149</ele>
        <time>2023-02-10T14:37:40Z</time>
      </trkpt>
      <trkpt lat="43.49876" lon="6.2726">
        <ele>149</ele>
        <time>2023-02-10T14:37:54Z</time>
      </trkpt>
      <trkpt lat="43.49879" lon="6.27258">
        <ele>150</ele>
        <time>2023-02-10T14:38:00Z</time>
      </trkpt>
      <trkpt lat="43.49881" lon="6.27255">
        <ele>150</ele>
        <time>2023-02-10T14:38:04Z</time>
      </trkpt>
      <trkpt lat="43.49883" lon="6.27251">
        <ele>150</ele>
        <time>2023-02-10T14:38:08Z</time>
      </trkpt>
      <trkpt lat="43.49884" lon="6.27248">
        <ele>151</ele>
        <time>2023-02-10T14:38:12Z</time>
      </trkpt>
      <trkpt lat="43.49887" lon="6.27245">
        <ele>152</ele>
        <time>2023-02-10T14:38:15Z</time>
      </trkpt>
      <trkpt lat="43.49893" lon="6.27237">
        <ele>154</ele>
        <time>2023-02-10T14:38:25Z</time>
      </trkpt>
      <trkpt lat="43.49899" lon="6.27231">
        <ele>154</ele>
        <time>2023-02-10T14:38:39Z</time>
      </trkpt>
      <trkpt lat="43.499" lon="6.27227">
        <ele>155</ele>
        <time>2023-02-10T14:38:43Z</time>
      </trkpt>
      <trkpt lat="43.49905" lon="6.27219">
        <ele>155</ele>
        <time>2023-02-10T14:38:54Z</time>
      </trkpt>
      <trkpt lat="43.4991" lon="6.27221">
        <ele>156</ele>
        <time>2023-02-10T14:38:59Z</time>
      </trkpt>
      <trkpt lat="43.49913" lon="6.27227">
        <ele>154</ele>
        <time>2023-02-10T14:39:07Z</time>
      </trkpt>
      <trkpt lat="43.49915" lon="6.27231">
        <ele>153</ele>
        <time>2023-02-10T14:39:12Z</time>
      </trkpt>
      <trkpt lat="43.49919" lon="6.27237">
        <ele>153</ele>
        <time>2023-02-10T14:39:18Z</time>
      </trkpt>
      <trkpt lat="43.49921" lon="6.27239">
        <ele>153</ele>
        <time>2023-02-10T14:39:22Z</time>
      </trkpt>
      <trkpt lat="43.49925" lon="6.27245">
        <ele>152</ele>
        <time>2023-02-10T14:39:30Z</time>
      </trkpt>
      <trkpt lat="43.49941" lon="6.27277">
        <ele>152</ele>
        <time>2023-02-10T14:39:58Z</time>
      </trkpt>
      <trkpt lat="43.49942" lon="6.2728">
        <ele>152</ele>
        <time>2023-02-10T14:40:00Z</time>
      </trkpt>
      <trkpt lat="43.49948" lon="6.27296">
        <ele>151</ele>
        <time>2023-02-10T14:40:12Z</time>
      </trkpt>
      <trkpt lat="43.49958" lon="6.27314">
        <ele>152</ele>
        <time>2023-02-10T14:40:29Z</time>
      </trkpt>
      <trkpt lat="43.49961" lon="6.27318">
        <ele>153</ele>
        <time>2023-02-10T14:40:35Z</time>
      </trkpt>
      <trkpt lat="43.49967" lon="6.2733">
        <ele>153</ele>
        <time>2023-02-10T14:40:48Z</time>
      </trkpt>
      <trkpt lat="43.4997" lon="6.27333">
        <ele>153</ele>
        <time>2023-02-10T14:40:53Z</time>
      </trkpt>
      <trkpt lat="43.49975" lon="6.27341">
        <ele>152</ele>
        <time>2023-02-10T14:41:01Z</time>
      </trkpt>
      <trkpt lat="43.49982" lon="6.27354">
        <ele>152</ele>
        <time>2023-02-10T14:41:17Z</time>
      </trkpt>
      <trkpt lat="43.49984" lon="6.2736">
        <ele>153</ele>
        <time>2023-02-10T14:41:21Z</time>
      </trkpt>
      <trkpt lat="43.49986" lon="6.27366">
        <ele>153</ele>
        <time>2023-02-10T14:41:25Z</time>
      </trkpt>
      <trkpt lat="43.49987" lon="6.2737">
        <ele>152</ele>
        <time>2023-02-10T14:41:29Z</time>
      </trkpt>
      <trkpt lat="43.4999" lon="6.2738">
        <ele>150</ele>
        <time>2023-02-10T14:41:37Z</time>
      </trkpt>
      <trkpt lat="43.49993" lon="6.27384">
        <ele>149</ele>
        <time>2023-02-10T14:41:41Z</time>
      </trkpt>
      <trkpt lat="43.5" lon="6.2739">
        <ele>149</ele>
        <time>2023-02-10T14:41:53Z</time>
      </trkpt>
      <trkpt lat="43.50003" lon="6.27394">
        <ele>149</ele>
        <time>2023-02-10T14:41:57Z</time>
      </trkpt>
      <trkpt lat="43.50005" lon="6.27399">
        <ele>148</ele>
        <time>2023-02-10T14:42:01Z</time>
      </trkpt>
      <trkpt lat="43.50013" lon="6.27411">
        <ele>148</ele>
        <time>2023-02-10T14:42:15Z</time>
      </trkpt>
      <trkpt lat="43.50015" lon="6.27415">
        <ele>148</ele>
        <time>2023-02-10T14:42:19Z</time>
      </trkpt>
      <trkpt lat="43.50019" lon="6.27429">
        <ele>146</ele>
        <time>2023-02-10T14:42:28Z</time>
      </trkpt>
      <trkpt lat="43.50041" lon="6.27462">
        <ele>143</ele>
        <time>2023-02-10T14:43:01Z</time>
      </trkpt>
      <trkpt lat="43.50047" lon="6.2747">
        <ele>142</ele>
        <time>2023-02-10T14:43:09Z</time>
      </trkpt>
      <trkpt lat="43.5005" lon="6.27475">
        <ele>141</ele>
        <time>2023-02-10T14:43:15Z</time>
      </trkpt>
      <trkpt lat="43.50052" lon="6.27479">
        <ele>142</ele>
        <time>2023-02-10T14:43:18Z</time>
      </trkpt>
      <trkpt lat="43.50057" lon="6.27488">
        <ele>143</ele>
        <time>2023-02-10T14:43:25Z</time>
      </trkpt>
      <trkpt lat="43.50066" lon="6.27506">
        <ele>142</ele>
        <time>2023-02-10T14:43:43Z</time>
      </trkpt>
      <trkpt lat="43.50069" lon="6.27511">
        <ele>141</ele>
        <time>2023-02-10T14:43:47Z</time>
      </trkpt>
      <trkpt lat="43.50071" lon="6.27515">
        <ele>140</ele>
        <time>2023-02-10T14:43:52Z</time>
      </trkpt>
      <trkpt lat="43.50075" lon="6.27526">
        <ele>140</ele>
        <time>2023-02-10T14:44:01Z</time>
      </trkpt>
      <trkpt lat="43.50077" lon="6.2753">
        <ele>138</ele>
        <time>2023-02-10T14:44:04Z</time>
      </trkpt>
      <trkpt lat="43.50087" lon="6.27545">
        <ele>137</ele>
        <time>2023-02-10T14:44:19Z</time>
      </trkpt>
      <trkpt lat="43.50091" lon="6.2756">
        <ele>134</ele>
        <time>2023-02-10T14:44:29Z</time>
      </trkpt>
      <trkpt lat="43.50094" lon="6.27563">
        <ele>133</ele>
        <time>2023-02-10T14:44:32Z</time>
      </trkpt>
      <trkpt lat="43.50099" lon="6.27578">
        <ele>134</ele>
        <time>2023-02-10T14:44:41Z</time>
      </trkpt>
      <trkpt lat="43.50101" lon="6.27582">
        <ele>135</ele>
        <time>2023-02-10T14:44:45Z</time>
      </trkpt>
      <trkpt lat="43.50107" lon="6.27596">
        <ele>136</ele>
        <time>2023-02-10T14:45:00Z</time>
      </trkpt>
      <trkpt lat="43.5011" lon="6.27608">
        <ele>137</ele>
        <time>2023-02-10T14:45:08Z</time>
      </trkpt>
      <trkpt lat="43.50111" lon="6.27613">
        <ele>136</ele>
        <time>2023-02-10T14:45:12Z</time>
      </trkpt>
      <trkpt lat="43.50113" lon="6.27637">
        <ele>137</ele>
        <time>2023-02-10T14:45:29Z</time>
      </trkpt>
      <trkpt lat="43.50114" lon="6.27642">
        <ele>137</ele>
        <time>2023-02-10T14:45:32Z</time>
      </trkpt>
      <trkpt lat="43.50118" lon="6.27663">
        <ele>137</ele>
        <time>2023-02-10T14:45:51Z</time>
      </trkpt>
      <trkpt lat="43.5012" lon="6.2767">
        <ele>136</ele>
        <time>2023-02-10T14:45:57Z</time>
      </trkpt>
      <trkpt lat="43.50122" lon="6.27685">
        <ele>136</ele>
        <time>2023-02-10T14:46:09Z</time>
      </trkpt>
      <trkpt lat="43.50122" lon="6.27692">
        <ele>136</ele>
        <time>2023-02-10T14:46:15Z</time>
      </trkpt>
      <trkpt lat="43.50117" lon="6.27709">
        <ele>137</ele>
        <time>2023-02-10T14:46:28Z</time>
      </trkpt>
      <trkpt lat="43.50116" lon="6.27713">
        <ele>137</ele>
        <time>2023-02-10T14:46:31Z</time>
      </trkpt>
      <trkpt lat="43.50114" lon="6.27724">
        <ele>138</ele>
        <time>2023-02-10T14:46:39Z</time>
      </trkpt>
      <trkpt lat="43.50113" lon="6.27729">
        <ele>138</ele>
        <time>2023-02-10T14:46:44Z</time>
      </trkpt>
      <trkpt lat="43.50113" lon="6.27734">
        <ele>138</ele>
        <time>2023-02-10T14:46:48Z</time>
      </trkpt>
      <trkpt lat="43.50112" lon="6.27751">
        <ele>138</ele>
        <time>2023-02-10T14:46:58Z</time>
      </trkpt>
      <trkpt lat="43.50109" lon="6.27774">
        <ele>140</ele>
        <time>2023-02-10T14:47:12Z</time>
      </trkpt>
      <trkpt lat="43.50108" lon="6.27778">
        <ele>140</ele>
        <time>2023-02-10T14:47:15Z</time>
      </trkpt>
      <trkpt lat="43.50105" lon="6.27787">
        <ele>140</ele>
        <time>2023-02-10T14:47:22Z</time>
      </trkpt>
      <trkpt lat="43.50103" lon="6.2779">
        <ele>141</ele>
        <time>2023-02-10T14:47:31Z</time>
      </trkpt>
      <trkpt lat="43.50101" lon="6.27798">
        <ele>142</ele>
        <time>2023-02-10T14:47:38Z</time>
      </trkpt>
      <trkpt lat="43.501" lon="6.27802">
        <ele>142</ele>
        <time>2023-02-10T14:47:42Z</time>
      </trkpt>
      <trkpt lat="43.50103" lon="6.2781">
        <ele>142</ele>
        <time>2023-02-10T14:48:00Z</time>
      </trkpt>
      <trkpt lat="43.5011" lon="6.27817">
        <ele>142</ele>
        <time>2023-02-10T14:48:14Z</time>
      </trkpt>
      <trkpt lat="43.50111" lon="6.2782">
        <ele>141</ele>
        <time>2023-02-10T14:48:17Z</time>
      </trkpt>
      <trkpt lat="43.5013" lon="6.27846">
        <ele>140</ele>
        <time>2023-02-10T14:48:48Z</time>
      </trkpt>
      <trkpt lat="43.50132" lon="6.27849">
        <ele>140</ele>
        <time>2023-02-10T14:48:51Z</time>
      </trkpt>
      <trkpt lat="43.50138" lon="6.27858">
        <ele>140</ele>
        <time>2023-02-10T14:49:01Z</time>
      </trkpt>
      <trkpt lat="43.50143" lon="6.27867">
        <ele>141</ele>
        <time>2023-02-10T14:49:09Z</time>
      </trkpt>
      <trkpt lat="43.50147" lon="6.27874">
        <ele>141</ele>
        <time>2023-02-10T14:49:16Z</time>
      </trkpt>
      <trkpt lat="43.50154" lon="6.27883">
        <ele>142</ele>
        <time>2023-02-10T14:49:26Z</time>
      </trkpt>
      <trkpt lat="43.50157" lon="6.27891">
        <ele>141</ele>
        <time>2023-02-10T14:49:33Z</time>
      </trkpt>
      <trkpt lat="43.50163" lon="6.27899">
        <ele>141</ele>
        <time>2023-02-10T14:49:41Z</time>
      </trkpt>
      <trkpt lat="43.50163" lon="6.27902">
        <ele>141</ele>
        <time>2023-02-10T14:49:47Z</time>
      </trkpt>
      <trkpt lat="43.50172" lon="6.27911">
        <ele>140</ele>
        <time>2023-02-10T14:50:00Z</time>
      </trkpt>
      <trkpt lat="43.50174" lon="6.27914">
        <ele>140</ele>
        <time>2023-02-10T14:50:03Z</time>
      </trkpt>
      <trkpt lat="43.50194" lon="6.27943">
        <ele>140</ele>
        <time>2023-02-10T14:50:30Z</time>
      </trkpt>
      <trkpt lat="43.50199" lon="6.27954">
        <ele>139</ele>
        <time>2023-02-10T14:50:38Z</time>
      </trkpt>
      <trkpt lat="43.50207" lon="6.27963">
        <ele>139</ele>
        <time>2023-02-10T14:50:47Z</time>
      </trkpt>
      <trkpt lat="43.50237" lon="6.27972">
        <ele>138</ele>
        <time>2023-02-10T14:51:19Z</time>
      </trkpt>
      <trkpt lat="43.5024" lon="6.27973">
        <ele>138</ele>
        <time>2023-02-10T14:51:22Z</time>
      </trkpt>
      <trkpt lat="43.50271" lon="6.2798">
        <ele>137</ele>
        <time>2023-02-10T14:51:52Z</time>
      </trkpt>
      <trkpt lat="43.50275" lon="6.27981">
        <ele>136</ele>
        <time>2023-02-10T14:51:56Z</time>
      </trkpt>
      <trkpt lat="43.50285" lon="6.27985">
        <ele>135</ele>
        <time>2023-02-10T14:52:07Z</time>
      </trkpt>
      <trkpt lat="43.50309" lon="6.27993">
        <ele>137</ele>
        <time>2023-02-10T14:52:29Z</time>
      </trkpt>
      <trkpt lat="43.50312" lon="6.27993">
        <ele>136</ele>
        <time>2023-02-10T14:52:33Z</time>
      </trkpt>
      <trkpt lat="43.50319" lon="6.27996">
        <ele>135</ele>
        <time>2023-02-10T14:52:42Z</time>
      </trkpt>
      <trkpt lat="43.50323" lon="6.27995">
        <ele>136</ele>
        <time>2023-02-10T14:52:46Z</time>
      </trkpt>
      <trkpt lat="43.50333" lon="6.27997">
        <ele>140</ele>
        <time>2023-02-10T14:52:55Z</time>
      </trkpt>
      <trkpt lat="43.5034" lon="6.28">
        <ele>139</ele>
        <time>2023-02-10T14:53:03Z</time>
      </trkpt>
      <trkpt lat="43.50345" lon="6.28">
        <ele>140</ele>
        <time>2023-02-10T14:53:08Z</time>
      </trkpt>
      <trkpt lat="43.50374" lon="6.27988">
        <ele>140</ele>
        <time>2023-02-10T14:53:37Z</time>
      </trkpt>
      <trkpt lat="43.50383" lon="6.27986">
        <ele>141</ele>
        <time>2023-02-10T14:53:45Z</time>
      </trkpt>
      <trkpt lat="43.50391" lon="6.27984">
        <ele>142</ele>
        <time>2023-02-10T14:53:51Z</time>
      </trkpt>
      <trkpt lat="43.50401" lon="6.27981">
        <ele>141</ele>
        <time>2023-02-10T14:54:03Z</time>
      </trkpt>
      <trkpt lat="43.50405" lon="6.27981">
        <ele>141</ele>
        <time>2023-02-10T14:54:07Z</time>
      </trkpt>
      <trkpt lat="43.50408" lon="6.2798">
        <ele>142</ele>
        <time>2023-02-10T14:54:10Z</time>
      </trkpt>
      <trkpt lat="43.50425" lon="6.27979">
        <ele>143</ele>
        <time>2023-02-10T14:54:24Z</time>
      </trkpt>
      <trkpt lat="43.50428" lon="6.27978">
        <ele>143</ele>
        <time>2023-02-10T14:54:39Z</time>
      </trkpt>
      <trkpt lat="43.50435" lon="6.2798">
        <ele>145</ele>
        <time>2023-02-10T14:54:47Z</time>
      </trkpt>
      <trkpt lat="43.50442" lon="6.27982">
        <ele>146</ele>
        <time>2023-02-10T14:54:55Z</time>
      </trkpt>
      <trkpt lat="43.50448" lon="6.27985">
        <ele>146</ele>
        <time>2023-02-10T14:55:06Z</time>
      </trkpt>
      <trkpt lat="43.50449" lon="6.2799">
        <ele>144</ele>
        <time>2023-02-10T14:55:17Z</time>
      </trkpt>
      <trkpt lat="43.50451" lon="6.27995">
        <ele>145</ele>
        <time>2023-02-10T14:55:22Z</time>
      </trkpt>
      <trkpt lat="43.50452" lon="6.27999">
        <ele>146</ele>
        <time>2023-02-10T14:55:25Z</time>
      </trkpt>
      <trkpt lat="43.50453" lon="6.28003">
        <ele>146</ele>
        <time>2023-02-10T14:55:28Z</time>
      </trkpt>
      <trkpt lat="43.50455" lon="6.2801">
        <ele>147</ele>
        <time>2023-02-10T14:55:35Z</time>
      </trkpt>
      <trkpt lat="43.50458" lon="6.28014">
        <ele>147</ele>
        <time>2023-02-10T14:55:39Z</time>
      </trkpt>
      <trkpt lat="43.50464" lon="6.28025">
        <ele>149</ele>
        <time>2023-02-10T14:55:50Z</time>
      </trkpt>
      <trkpt lat="43.50466" lon="6.28028">
        <ele>149</ele>
        <time>2023-02-10T14:55:55Z</time>
      </trkpt>
      <trkpt lat="43.50469" lon="6.28029">
        <ele>149</ele>
        <time>2023-02-10T14:55:59Z</time>
      </trkpt>
      <trkpt lat="43.50472" lon="6.28033">
        <ele>147</ele>
        <time>2023-02-10T14:56:05Z</time>
      </trkpt>
      <trkpt lat="43.50474" lon="6.28037">
        <ele>148</ele>
        <time>2023-02-10T14:56:10Z</time>
      </trkpt>
      <trkpt lat="43.50479" lon="6.2804">
        <ele>148</ele>
        <time>2023-02-10T14:56:19Z</time>
      </trkpt>
      <trkpt lat="43.50495" lon="6.28049">
        <ele>146</ele>
        <time>2023-02-10T14:56:38Z</time>
      </trkpt>
      <trkpt lat="43.50497" lon="6.28051">
        <ele>146</ele>
        <time>2023-02-10T14:56:41Z</time>
      </trkpt>
      <trkpt lat="43.50498" lon="6.28056">
        <ele>148</ele>
        <time>2023-02-10T14:57:12Z</time>
      </trkpt>
      <trkpt lat="43.50499" lon="6.2806">
        <ele>149</ele>
        <time>2023-02-10T14:57:19Z</time>
      </trkpt>
      <trkpt lat="43.50507" lon="6.28072">
        <ele>150</ele>
        <time>2023-02-10T14:57:32Z</time>
      </trkpt>
      <trkpt lat="43.50513" lon="6.2808">
        <ele>151</ele>
        <time>2023-02-10T14:57:40Z</time>
      </trkpt>
      <trkpt lat="43.50516" lon="6.28083">
        <ele>152</ele>
        <time>2023-02-10T14:57:44Z</time>
      </trkpt>
      <trkpt lat="43.50517" lon="6.28086">
        <ele>152</ele>
        <time>2023-02-10T14:57:47Z</time>
      </trkpt>
      <trkpt lat="43.50521" lon="6.28096">
        <ele>152</ele>
        <time>2023-02-10T14:57:55Z</time>
      </trkpt>
      <trkpt lat="43.50524" lon="6.28108">
        <ele>154</ele>
        <time>2023-02-10T14:58:05Z</time>
      </trkpt>
      <trkpt lat="43.50528" lon="6.2812">
        <ele>154</ele>
        <time>2023-02-10T14:58:15Z</time>
      </trkpt>
      <trkpt lat="43.50531" lon="6.28128">
        <ele>155</ele>
        <time>2023-02-10T14:58:22Z</time>
      </trkpt>
      <trkpt lat="43.50536" lon="6.28139">
        <ele>156</ele>
        <time>2023-02-10T14:58:34Z</time>
      </trkpt>
      <trkpt lat="43.5054" lon="6.28147">
        <ele>157</ele>
        <time>2023-02-10T14:58:41Z</time>
      </trkpt>
      <trkpt lat="43.50549" lon="6.28164">
        <ele>157</ele>
        <time>2023-02-10T14:58:59Z</time>
      </trkpt>
      <trkpt lat="43.50553" lon="6.28165">
        <ele>156</ele>
        <time>2023-02-10T14:59:11Z</time>
      </trkpt>
      <trkpt lat="43.50562" lon="6.28183">
        <ele>157</ele>
        <time>2023-02-10T14:59:31Z</time>
      </trkpt>
      <trkpt lat="43.5057" lon="6.28218">
        <ele>158</ele>
        <time>2023-02-10T15:00:01Z</time>
      </trkpt>
      <trkpt lat="43.50573" lon="6.28229">
        <ele>158</ele>
        <time>2023-02-10T15:00:10Z</time>
      </trkpt>
      <trkpt lat="43.50575" lon="6.28235">
        <ele>158</ele>
        <time>2023-02-10T15:00:16Z</time>
      </trkpt>
      <trkpt lat="43.50576" lon="6.28242">
        <ele>158</ele>
        <time>2023-02-10T15:00:22Z</time>
      </trkpt>
      <trkpt lat="43.50577" lon="6.28247">
        <ele>158</ele>
        <time>2023-02-10T15:00:26Z</time>
      </trkpt>
      <trkpt lat="43.50579" lon="6.28253">
        <ele>158</ele>
        <time>2023-02-10T15:00:32Z</time>
      </trkpt>
      <trkpt lat="43.5058" lon="6.28263">
        <ele>157</ele>
        <time>2023-02-10T15:00:39Z</time>
      </trkpt>
      <trkpt lat="43.50584" lon="6.28273">
        <ele>157</ele>
        <time>2023-02-10T15:00:46Z</time>
      </trkpt>
      <trkpt lat="43.50591" lon="6.28298">
        <ele>161</ele>
        <time>2023-02-10T15:01:07Z</time>
      </trkpt>
      <trkpt lat="43.50598" lon="6.28318">
        <ele>165</ele>
        <time>2023-02-10T15:01:24Z</time>
      </trkpt>
      <trkpt lat="43.506" lon="6.28323">
        <ele>165</ele>
        <time>2023-02-10T15:01:29Z</time>
      </trkpt>
      <trkpt lat="43.50601" lon="6.28327">
        <ele>165</ele>
        <time>2023-02-10T15:01:33Z</time>
      </trkpt>
      <trkpt lat="43.50603" lon="6.28331">
        <ele>165</ele>
        <time>2023-02-10T15:01:37Z</time>
      </trkpt>
      <trkpt lat="43.50605" lon="6.28337">
        <ele>165</ele>
        <time>2023-02-10T15:01:41Z</time>
      </trkpt>
      <trkpt lat="43.50611" lon="6.28351">
        <ele>166</ele>
        <time>2023-02-10T15:01:53Z</time>
      </trkpt>
      <trkpt lat="43.50612" lon="6.28356">
        <ele>166</ele>
        <time>2023-02-10T15:01:57Z</time>
      </trkpt>
      <trkpt lat="43.50613" lon="6.28361">
        <ele>167</ele>
        <time>2023-02-10T15:02:01Z</time>
      </trkpt>
      <trkpt lat="43.50617" lon="6.28366">
        <ele>167</ele>
        <time>2023-02-10T15:02:21Z</time>
      </trkpt>
      <trkpt lat="43.50621" lon="6.28384">
        <ele>166</ele>
        <time>2023-02-10T15:02:46Z</time>
      </trkpt>
      <trkpt lat="43.5062" lon="6.28391">
        <ele>166</ele>
        <time>2023-02-10T15:02:51Z</time>
      </trkpt>
      <trkpt lat="43.50621" lon="6.28396">
        <ele>166</ele>
        <time>2023-02-10T15:02:54Z</time>
      </trkpt>
      <trkpt lat="43.50621" lon="6.28402">
        <ele>166</ele>
        <time>2023-02-10T15:02:58Z</time>
      </trkpt>
      <trkpt lat="43.50622" lon="6.28407">
        <ele>166</ele>
        <time>2023-02-10T15:03:02Z</time>
      </trkpt>
      <trkpt lat="43.50622" lon="6.28412">
        <ele>167</ele>
        <time>2023-02-10T15:03:05Z</time>
      </trkpt>
      <trkpt lat="43.50623" lon="6.28419">
        <ele>167</ele>
        <time>2023-02-10T15:03:12Z</time>
      </trkpt>
      <trkpt lat="43.50623" lon="6.2844">
        <ele>169</ele>
        <time>2023-02-10T15:03:27Z</time>
      </trkpt>
      <trkpt lat="43.50623" lon="6.28444">
        <ele>169</ele>
        <time>2023-02-10T15:03:30Z</time>
      </trkpt>
      <trkpt lat="43.50622" lon="6.28463">
        <ele>170</ele>
        <time>2023-02-10T15:03:44Z</time>
      </trkpt>
      <trkpt lat="43.5062" lon="6.28473">
        <ele>171</ele>
        <time>2023-02-10T15:03:50Z</time>
      </trkpt>
      <trkpt lat="43.50617" lon="6.28489">
        <ele>171</ele>
        <time>2023-02-10T15:04:04Z</time>
      </trkpt>
      <trkpt lat="43.50614" lon="6.28507">
        <ele>171</ele>
        <time>2023-02-10T15:04:17Z</time>
      </trkpt>
      <trkpt lat="43.50612" lon="6.28512">
        <ele>170</ele>
        <time>2023-02-10T15:04:21Z</time>
      </trkpt>
      <trkpt lat="43.50611" lon="6.28518">
        <ele>170</ele>
        <time>2023-02-10T15:04:25Z</time>
      </trkpt>
      <trkpt lat="43.50611" lon="6.28523">
        <ele>170</ele>
        <time>2023-02-10T15:04:29Z</time>
      </trkpt>
      <trkpt lat="43.5061" lon="6.28527">
        <ele>168</ele>
        <time>2023-02-10T15:04:36Z</time>
      </trkpt>
      <trkpt lat="43.50608" lon="6.28532">
        <ele>168</ele>
        <time>2023-02-10T15:04:39Z</time>
      </trkpt>
      <trkpt lat="43.50606" lon="6.28539">
        <ele>168</ele>
        <time>2023-02-10T15:04:46Z</time>
      </trkpt>
      <trkpt lat="43.50606" lon="6.28544">
        <ele>168</ele>
        <time>2023-02-10T15:04:49Z</time>
      </trkpt>
      <trkpt lat="43.50602" lon="6.28563">
        <ele>170</ele>
        <time>2023-02-10T15:05:07Z</time>
      </trkpt>
      <trkpt lat="43.506" lon="6.28572">
        <ele>172</ele>
        <time>2023-02-10T15:05:13Z</time>
      </trkpt>
      <trkpt lat="43.50598" lon="6.28579">
        <ele>172</ele>
        <time>2023-02-10T15:05:18Z</time>
      </trkpt>
      <trkpt lat="43.50598" lon="6.28584">
        <ele>173</ele>
        <time>2023-02-10T15:05:22Z</time>
      </trkpt>
      <trkpt lat="43.50595" lon="6.28593">
        <ele>174</ele>
        <time>2023-02-10T15:05:28Z</time>
      </trkpt>
      <trkpt lat="43.50594" lon="6.28598">
        <ele>174</ele>
        <time>2023-02-10T15:05:32Z</time>
      </trkpt>
      <trkpt lat="43.50599" lon="6.28612">
        <ele>176</ele>
        <time>2023-02-10T15:05:43Z</time>
      </trkpt>
      <trkpt lat="43.50601" lon="6.28616">
        <ele>177</ele>
        <time>2023-02-10T15:05:48Z</time>
      </trkpt>
      <trkpt lat="43.50611" lon="6.28634">
        <ele>178</ele>
        <time>2023-02-10T15:06:08Z</time>
      </trkpt>
      <trkpt lat="43.50615" lon="6.28645">
        <ele>179</ele>
        <time>2023-02-10T15:06:17Z</time>
      </trkpt>
      <trkpt lat="43.5062" lon="6.28656">
        <ele>180</ele>
        <time>2023-02-10T15:06:26Z</time>
      </trkpt>
      <trkpt lat="43.5063" lon="6.28676">
        <ele>180</ele>
        <time>2023-02-10T15:06:42Z</time>
      </trkpt>
      <trkpt lat="43.5064" lon="6.28692">
        <ele>181</ele>
        <time>2023-02-10T15:06:57Z</time>
      </trkpt>
      <trkpt lat="43.50645" lon="6.28698">
        <ele>180</ele>
        <time>2023-02-10T15:07:04Z</time>
      </trkpt>
      <trkpt lat="43.50649" lon="6.287">
        <ele>181</ele>
        <time>2023-02-10T15:07:08Z</time>
      </trkpt>
      <trkpt lat="43.50656" lon="6.28706">
        <ele>180</ele>
        <time>2023-02-10T15:07:17Z</time>
      </trkpt>
      <trkpt lat="43.50662" lon="6.28715">
        <ele>179</ele>
        <time>2023-02-10T15:07:26Z</time>
      </trkpt>
      <trkpt lat="43.50668" lon="6.28727">
        <ele>179</ele>
        <time>2023-02-10T15:07:37Z</time>
      </trkpt>
      <trkpt lat="43.50668" lon="6.28731">
        <ele>178</ele>
        <time>2023-02-10T15:07:40Z</time>
      </trkpt>
      <trkpt lat="43.50675" lon="6.28749">
        <ele>180</ele>
        <time>2023-02-10T15:07:54Z</time>
      </trkpt>
      <trkpt lat="43.5068" lon="6.28755">
        <ele>180</ele>
        <time>2023-02-10T15:08:00Z</time>
      </trkpt>
      <trkpt lat="43.50682" lon="6.28757">
        <ele>180</ele>
        <time>2023-02-10T15:08:04Z</time>
      </trkpt>
      <trkpt lat="43.50679" lon="6.28758">
        <ele>180</ele>
        <time>2023-02-10T15:10:39Z</time>
      </trkpt>
      <trkpt lat="43.50675" lon="6.28759">
        <ele>180</ele>
        <time>2023-02-10T15:10:42Z</time>
      </trkpt>
      <trkpt lat="43.50673" lon="6.2876">
        <ele>180</ele>
        <time>2023-02-10T15:10:45Z</time>
      </trkpt>
      <trkpt lat="43.50671" lon="6.28762">
        <ele>178</ele>
        <time>2023-02-10T15:10:48Z</time>
      </trkpt>
      <trkpt lat="43.50653" lon="6.28805">
        <ele>180</ele>
        <time>2023-02-10T15:11:20Z</time>
      </trkpt>
      <trkpt lat="43.50644" lon="6.28848">
        <ele>182</ele>
        <time>2023-02-10T15:11:49Z</time>
      </trkpt>
      <trkpt lat="43.50643" lon="6.28856">
        <ele>181</ele>
        <time>2023-02-10T15:11:55Z</time>
      </trkpt>
      <trkpt lat="43.50644" lon="6.28861">
        <ele>182</ele>
        <time>2023-02-10T15:11:58Z</time>
      </trkpt>
      <trkpt lat="43.50642" lon="6.28872">
        <ele>183</ele>
        <time>2023-02-10T15:12:07Z</time>
      </trkpt>
      <trkpt lat="43.50643" lon="6.28877">
        <ele>182</ele>
        <time>2023-02-10T15:12:14Z</time>
      </trkpt>
      <trkpt lat="43.50643" lon="6.28882">
        <ele>182</ele>
        <time>2023-02-10T15:12:19Z</time>
      </trkpt>
      <trkpt lat="43.50643" lon="6.28886">
        <ele>181</ele>
        <time>2023-02-10T15:12:24Z</time>
      </trkpt>
      <trkpt lat="43.50641" lon="6.2889">
        <ele>181</ele>
        <time>2023-02-10T15:12:29Z</time>
      </trkpt>
      <trkpt lat="43.5064" lon="6.28899">
        <ele>180</ele>
        <time>2023-02-10T15:12:38Z</time>
      </trkpt>
      <trkpt lat="43.5064" lon="6.28904">
        <ele>180</ele>
        <time>2023-02-10T15:12:42Z</time>
      </trkpt>
      <trkpt lat="43.50637" lon="6.28925">
        <ele>179</ele>
        <time>2023-02-10T15:12:59Z</time>
      </trkpt>
      <trkpt lat="43.50636" lon="6.2893">
        <ele>180</ele>
        <time>2023-02-10T15:13:02Z</time>
      </trkpt>
      <trkpt lat="43.50636" lon="6.28936">
        <ele>179</ele>
        <time>2023-02-10T15:13:06Z</time>
      </trkpt>
      <trkpt lat="43.50633" lon="6.28941">
        <ele>179</ele>
        <time>2023-02-10T15:13:11Z</time>
      </trkpt>
      <trkpt lat="43.50624" lon="6.28942">
        <ele>177</ele>
        <time>2023-02-10T15:13:21Z</time>
      </trkpt>
      <trkpt lat="43.50621" lon="6.28942">
        <ele>175</ele>
        <time>2023-02-10T15:13:28Z</time>
      </trkpt>
      <trkpt lat="43.50614" lon="6.28943">
        <ele>175</ele>
        <time>2023-02-10T15:13:42Z</time>
      </trkpt>
      <trkpt lat="43.50613" lon="6.28947">
        <ele>174</ele>
        <time>2023-02-10T15:14:33Z</time>
      </trkpt>
      <trkpt lat="43.50612" lon="6.28951">
        <ele>173</ele>
        <time>2023-02-10T15:14:57Z</time>
      </trkpt>
      <trkpt lat="43.5061" lon="6.28948">
        <ele>174</ele>
        <time>2023-02-10T15:15:38Z</time>
      </trkpt>
      <trkpt lat="43.50607" lon="6.28946">
        <ele>174</ele>
        <time>2023-02-10T15:15:44Z</time>
      </trkpt>
      <trkpt lat="43.50606" lon="6.28947">
        <ele>175</ele>
        <time>2023-02-10T15:18:55Z</time>
      </trkpt>
      <trkpt lat="43.50606" lon="6.2895">
        <ele>179</ele>
        <time>2023-02-10T15:22:09Z</time>
      </trkpt>
    </trkseg>
  </trk>
</gpx>